<?xml version="1.0" encoding="UTF-8" standalone="no" ?>
<gpx xmlns="http://www.topografix.com/GPX/1/1" xmlns:xsi="http://www.w3.org/2001/XMLSchema-instance" xsi:schemaLocation="http://www.topografix.com/GPX/1/1 http://www.topografix.com/GPX/1/1/gpx.xsd" version="1.1" creator="VisuGPX - https://www.visugpx.com">
  <metadata>
    <name>La Forestière Grand Parc Miribel Jonage</name>
    <desc><![CDATA[Circuit balisé VTT N°4 du Grand Parc Miribel Jonage]]></desc>
  </metadata>
  <trk>
    <name><![CDATA[Tracé 001]]></name>
    <trkseg>
      <trkpt lat="45.80331" lon="4.93415">
        <ele>185.056</ele>
        <time>2011-05-30T13:15:34Z</time>
      </trkpt>
      <trkpt lat="45.80331" lon="4.93415">
        <ele>185.581</ele>
        <time>2011-05-30T13:16:00Z</time>
      </trkpt>
      <trkpt lat="45.80334" lon="4.93412">
        <ele>185.462</ele>
        <time>2011-05-30T13:16:02Z</time>
      </trkpt>
      <trkpt lat="45.8036" lon="4.93401">
        <ele>181.725</ele>
        <time>2011-05-30T13:16:09Z</time>
      </trkpt>
      <trkpt lat="45.80366" lon="4.93398">
        <ele>181.719</ele>
        <time>2011-05-30T13:16:10Z</time>
      </trkpt>
      <trkpt lat="45.80394" lon="4.93386">
        <ele>179.472</ele>
        <time>2011-05-30T13:16:14Z</time>
      </trkpt>
      <trkpt lat="45.80472" lon="4.93353">
        <ele>181.909</ele>
        <time>2011-05-30T13:16:28Z</time>
      </trkpt>
      <trkpt lat="45.80483" lon="4.93349">
        <ele>183.957</ele>
        <time>2011-05-30T13:16:31Z</time>
      </trkpt>
      <trkpt lat="45.80486" lon="4.93347">
        <ele>184.329</ele>
        <time>2011-05-30T13:16:32Z</time>
      </trkpt>
      <trkpt lat="45.80491" lon="4.93359">
        <ele>184.402</ele>
        <time>2011-05-30T13:16:37Z</time>
      </trkpt>
      <trkpt lat="45.80485" lon="4.9337">
        <ele>183.213</ele>
        <time>2011-05-30T13:16:40Z</time>
      </trkpt>
      <trkpt lat="45.80488" lon="4.93421">
        <ele>183.826</ele>
        <time>2011-05-30T13:16:48Z</time>
      </trkpt>
      <trkpt lat="45.80532" lon="4.9352">
        <ele>182.01</ele>
        <time>2011-05-30T13:17:02Z</time>
      </trkpt>
      <trkpt lat="45.80548" lon="4.93542">
        <ele>182.902</ele>
        <time>2011-05-30T13:17:06Z</time>
      </trkpt>
      <trkpt lat="45.80576" lon="4.9356">
        <ele>184.421</ele>
        <time>2011-05-30T13:17:12Z</time>
      </trkpt>
      <trkpt lat="45.80612" lon="4.93559">
        <ele>184.175</ele>
        <time>2011-05-30T13:17:19Z</time>
      </trkpt>
      <trkpt lat="45.80622" lon="4.93553">
        <ele>184.772</ele>
        <time>2011-05-30T13:17:21Z</time>
      </trkpt>
      <trkpt lat="45.80632" lon="4.9355">
        <ele>185.563</ele>
        <time>2011-05-30T13:17:23Z</time>
      </trkpt>
      <trkpt lat="45.80644" lon="4.93536">
        <ele>184.179</ele>
        <time>2011-05-30T13:17:26Z</time>
      </trkpt>
      <trkpt lat="45.80669" lon="4.93506">
        <ele>184.187</ele>
        <time>2011-05-30T13:17:32Z</time>
      </trkpt>
      <trkpt lat="45.80698" lon="4.93503">
        <ele>183.717</ele>
        <time>2011-05-30T13:17:38Z</time>
      </trkpt>
      <trkpt lat="45.80728" lon="4.93527">
        <ele>183.527</ele>
        <time>2011-05-30T13:17:43Z</time>
      </trkpt>
      <trkpt lat="45.8075" lon="4.9352">
        <ele>184.508</ele>
        <time>2011-05-30T13:17:47Z</time>
      </trkpt>
      <trkpt lat="45.80777" lon="4.93522">
        <ele>183.735</ele>
        <time>2011-05-30T13:17:52Z</time>
      </trkpt>
      <trkpt lat="45.80824" lon="4.93564">
        <ele>185.396</ele>
        <time>2011-05-30T13:18:02Z</time>
      </trkpt>
      <trkpt lat="45.80838" lon="4.93581">
        <ele>185.376</ele>
        <time>2011-05-30T13:18:06Z</time>
      </trkpt>
      <trkpt lat="45.80863" lon="4.93584">
        <ele>185.971</ele>
        <time>2011-05-30T13:18:11Z</time>
      </trkpt>
      <trkpt lat="45.80878" lon="4.93586">
        <ele>185.521</ele>
        <time>2011-05-30T13:18:14Z</time>
      </trkpt>
      <trkpt lat="45.80899" lon="4.93624">
        <ele>185.91</ele>
        <time>2011-05-30T13:18:21Z</time>
      </trkpt>
      <trkpt lat="45.809" lon="4.93641">
        <ele>184.752</ele>
        <time>2011-05-30T13:18:23Z</time>
      </trkpt>
      <trkpt lat="45.80904" lon="4.93667">
        <ele>183.133</ele>
        <time>2011-05-30T13:18:26Z</time>
      </trkpt>
      <trkpt lat="45.80941" lon="4.93747">
        <ele>184.839</ele>
        <time>2011-05-30T13:18:36Z</time>
      </trkpt>
      <trkpt lat="45.80962" lon="4.93829">
        <ele>183.083</ele>
        <time>2011-05-30T13:18:45Z</time>
      </trkpt>
      <trkpt lat="45.80967" lon="4.93849">
        <ele>184.389</ele>
        <time>2011-05-30T13:18:47Z</time>
      </trkpt>
      <trkpt lat="45.80976" lon="4.93941">
        <ele>182.278</ele>
        <time>2011-05-30T13:18:56Z</time>
      </trkpt>
      <trkpt lat="45.80978" lon="4.9397">
        <ele>183.92</ele>
        <time>2011-05-30T13:18:59Z</time>
      </trkpt>
      <trkpt lat="45.8099" lon="4.94038">
        <ele>184.316</ele>
        <time>2011-05-30T13:19:07Z</time>
      </trkpt>
      <trkpt lat="45.81005" lon="4.94065">
        <ele>185.138</ele>
        <time>2011-05-30T13:19:11Z</time>
      </trkpt>
      <trkpt lat="45.81033" lon="4.94097">
        <ele>184.548</ele>
        <time>2011-05-30T13:19:17Z</time>
      </trkpt>
      <trkpt lat="45.81043" lon="4.94142">
        <ele>185.636</ele>
        <time>2011-05-30T13:19:24Z</time>
      </trkpt>
      <trkpt lat="45.81045" lon="4.94154">
        <ele>185.358</ele>
        <time>2011-05-30T13:19:26Z</time>
      </trkpt>
      <trkpt lat="45.81044" lon="4.94193">
        <ele>184.88</ele>
        <time>2011-05-30T13:19:31Z</time>
      </trkpt>
      <trkpt lat="45.81036" lon="4.94215">
        <ele>185.195</ele>
        <time>2011-05-30T13:19:34Z</time>
      </trkpt>
      <trkpt lat="45.81033" lon="4.94232">
        <ele>184.297</ele>
        <time>2011-05-30T13:19:36Z</time>
      </trkpt>
      <trkpt lat="45.81034" lon="4.94267">
        <ele>184.416</ele>
        <time>2011-05-30T13:19:40Z</time>
      </trkpt>
      <trkpt lat="45.81033" lon="4.94287">
        <ele>182.869</ele>
        <time>2011-05-30T13:19:42Z</time>
      </trkpt>
      <trkpt lat="45.81033" lon="4.94297">
        <ele>182.866</ele>
        <time>2011-05-30T13:19:43Z</time>
      </trkpt>
      <trkpt lat="45.81033" lon="4.94315">
        <ele>184.962</ele>
        <time>2011-05-30T13:19:45Z</time>
      </trkpt>
      <trkpt lat="45.81032" lon="4.94322">
        <ele>184.428</ele>
        <time>2011-05-30T13:19:46Z</time>
      </trkpt>
      <trkpt lat="45.81026" lon="4.94355">
        <ele>184.508</ele>
        <time>2011-05-30T13:19:50Z</time>
      </trkpt>
      <trkpt lat="45.8101" lon="4.94377">
        <ele>184.764</ele>
        <time>2011-05-30T13:19:54Z</time>
      </trkpt>
      <trkpt lat="45.80997" lon="4.94397">
        <ele>183.324</ele>
        <time>2011-05-30T13:19:57Z</time>
      </trkpt>
      <trkpt lat="45.80994" lon="4.94402">
        <ele>183.717</ele>
        <time>2011-05-30T13:19:58Z</time>
      </trkpt>
      <trkpt lat="45.81005" lon="4.94436">
        <ele>184.09</ele>
        <time>2011-05-30T13:20:05Z</time>
      </trkpt>
      <trkpt lat="45.81015" lon="4.9444">
        <ele>184.048</ele>
        <time>2011-05-30T13:20:08Z</time>
      </trkpt>
      <trkpt lat="45.81043" lon="4.94457">
        <ele>184.328</ele>
        <time>2011-05-30T13:20:16Z</time>
      </trkpt>
      <trkpt lat="45.81058" lon="4.94467">
        <ele>184.365</ele>
        <time>2011-05-30T13:20:22Z</time>
      </trkpt>
      <trkpt lat="45.81062" lon="4.94489">
        <ele>184.842</ele>
        <time>2011-05-30T13:20:27Z</time>
      </trkpt>
      <trkpt lat="45.81065" lon="4.94492">
        <ele>184.685</ele>
        <time>2011-05-30T13:20:28Z</time>
      </trkpt>
      <trkpt lat="45.81077" lon="4.94497">
        <ele>185.19</ele>
        <time>2011-05-30T13:20:31Z</time>
      </trkpt>
      <trkpt lat="45.81079" lon="4.94513">
        <ele>185.409</ele>
        <time>2011-05-30T13:20:35Z</time>
      </trkpt>
      <trkpt lat="45.81085" lon="4.94528">
        <ele>184.522</ele>
        <time>2011-05-30T13:20:39Z</time>
      </trkpt>
      <trkpt lat="45.81095" lon="4.94526">
        <ele>185.715</ele>
        <time>2011-05-30T13:20:43Z</time>
      </trkpt>
      <trkpt lat="45.81104" lon="4.94521">
        <ele>185.822</ele>
        <time>2011-05-30T13:20:47Z</time>
      </trkpt>
      <trkpt lat="45.81121" lon="4.94547">
        <ele>185.883</ele>
        <time>2011-05-30T13:20:54Z</time>
      </trkpt>
      <trkpt lat="45.81128" lon="4.9457">
        <ele>185.069</ele>
        <time>2011-05-30T13:20:58Z</time>
      </trkpt>
      <trkpt lat="45.81134" lon="4.94587">
        <ele>185.496</ele>
        <time>2011-05-30T13:21:01Z</time>
      </trkpt>
      <trkpt lat="45.8114" lon="4.94626">
        <ele>186.092</ele>
        <time>2011-05-30T13:21:07Z</time>
      </trkpt>
      <trkpt lat="45.81139" lon="4.94667">
        <ele>186.589</ele>
        <time>2011-05-30T13:21:14Z</time>
      </trkpt>
      <trkpt lat="45.81141" lon="4.94696">
        <ele>185.6</ele>
        <time>2011-05-30T13:21:19Z</time>
      </trkpt>
      <trkpt lat="45.81145" lon="4.94717">
        <ele>185.776</ele>
        <time>2011-05-30T13:21:22Z</time>
      </trkpt>
      <trkpt lat="45.81148" lon="4.94745">
        <ele>185.676</ele>
        <time>2011-05-30T13:21:26Z</time>
      </trkpt>
      <trkpt lat="45.81147" lon="4.94763">
        <ele>186.21</ele>
        <time>2011-05-30T13:21:29Z</time>
      </trkpt>
      <trkpt lat="45.81149" lon="4.94792">
        <ele>186.435</ele>
        <time>2011-05-30T13:21:35Z</time>
      </trkpt>
      <trkpt lat="45.81164" lon="4.94808">
        <ele>186.535</ele>
        <time>2011-05-30T13:21:42Z</time>
      </trkpt>
      <trkpt lat="45.81168" lon="4.94814">
        <ele>186.546</ele>
        <time>2011-05-30T13:21:44Z</time>
      </trkpt>
      <trkpt lat="45.81208" lon="4.94842">
        <ele>187.008</ele>
        <time>2011-05-30T13:21:56Z</time>
      </trkpt>
      <trkpt lat="45.81219" lon="4.94827">
        <ele>187.016</ele>
        <time>2011-05-30T13:22:01Z</time>
      </trkpt>
      <trkpt lat="45.81232" lon="4.94815">
        <ele>187.796</ele>
        <time>2011-05-30T13:22:07Z</time>
      </trkpt>
      <trkpt lat="45.81237" lon="4.94814">
        <ele>187.541</ele>
        <time>2011-05-30T13:22:09Z</time>
      </trkpt>
      <trkpt lat="45.81252" lon="4.94827">
        <ele>187.346</ele>
        <time>2011-05-30T13:22:14Z</time>
      </trkpt>
      <trkpt lat="45.81261" lon="4.94851">
        <ele>187.432</ele>
        <time>2011-05-30T13:22:20Z</time>
      </trkpt>
      <trkpt lat="45.8125" lon="4.94878">
        <ele>187.007</ele>
        <time>2011-05-30T13:22:27Z</time>
      </trkpt>
      <trkpt lat="45.81232" lon="4.94881">
        <ele>187.307</ele>
        <time>2011-05-30T13:22:33Z</time>
      </trkpt>
      <trkpt lat="45.81222" lon="4.94875">
        <ele>186.48</ele>
        <time>2011-05-30T13:22:38Z</time>
      </trkpt>
      <trkpt lat="45.81198" lon="4.94874">
        <ele>187.143</ele>
        <time>2011-05-30T13:22:44Z</time>
      </trkpt>
      <trkpt lat="45.81188" lon="4.94888">
        <ele>186.8</ele>
        <time>2011-05-30T13:22:48Z</time>
      </trkpt>
      <trkpt lat="45.81183" lon="4.94893">
        <ele>186.887</ele>
        <time>2011-05-30T13:22:50Z</time>
      </trkpt>
      <trkpt lat="45.81172" lon="4.94915">
        <ele>186.026</ele>
        <time>2011-05-30T13:22:56Z</time>
      </trkpt>
      <trkpt lat="45.81165" lon="4.94937">
        <ele>185.805</ele>
        <time>2011-05-30T13:23:01Z</time>
      </trkpt>
      <trkpt lat="45.81159" lon="4.94954">
        <ele>186.044</ele>
        <time>2011-05-30T13:23:05Z</time>
      </trkpt>
      <trkpt lat="45.8116" lon="4.94959">
        <ele>186.334</ele>
        <time>2011-05-30T13:23:07Z</time>
      </trkpt>
      <trkpt lat="45.81125" lon="4.9497">
        <ele>185.451</ele>
        <time>2011-05-30T13:23:19Z</time>
      </trkpt>
      <trkpt lat="45.8111" lon="4.94959">
        <ele>184.97</ele>
        <time>2011-05-30T13:23:23Z</time>
      </trkpt>
      <trkpt lat="45.81097" lon="4.94957">
        <ele>181.881</ele>
        <time>2011-05-30T13:23:26Z</time>
      </trkpt>
      <trkpt lat="45.81084" lon="4.94952">
        <ele>182.93</ele>
        <time>2011-05-30T13:23:29Z</time>
      </trkpt>
      <trkpt lat="45.81068" lon="4.9495">
        <ele>181.017</ele>
        <time>2011-05-30T13:23:32Z</time>
      </trkpt>
      <trkpt lat="45.81047" lon="4.94945">
        <ele>178.478</ele>
        <time>2011-05-30T13:23:37Z</time>
      </trkpt>
      <trkpt lat="45.81038" lon="4.94934">
        <ele>176.984</ele>
        <time>2011-05-30T13:23:39Z</time>
      </trkpt>
      <trkpt lat="45.81027" lon="4.94928">
        <ele>176.24</ele>
        <time>2011-05-30T13:23:41Z</time>
      </trkpt>
      <trkpt lat="45.80929" lon="4.94882">
        <ele>175.917</ele>
        <time>2011-05-30T13:23:57Z</time>
      </trkpt>
      <trkpt lat="45.80914" lon="4.94866">
        <ele>177.787</ele>
        <time>2011-05-30T13:24:00Z</time>
      </trkpt>
      <trkpt lat="45.80902" lon="4.94855">
        <ele>176.51</ele>
        <time>2011-05-30T13:24:02Z</time>
      </trkpt>
      <trkpt lat="45.80878" lon="4.94826">
        <ele>178.968</ele>
        <time>2011-05-30T13:24:07Z</time>
      </trkpt>
      <trkpt lat="45.80859" lon="4.94803">
        <ele>177.259</ele>
        <time>2011-05-30T13:24:11Z</time>
      </trkpt>
      <trkpt lat="45.8084" lon="4.94777">
        <ele>179.125</ele>
        <time>2011-05-30T13:24:16Z</time>
      </trkpt>
      <trkpt lat="45.80829" lon="4.94758">
        <ele>178.287</ele>
        <time>2011-05-30T13:24:20Z</time>
      </trkpt>
      <trkpt lat="45.80816" lon="4.94744">
        <ele>177.4</ele>
        <time>2011-05-30T13:24:23Z</time>
      </trkpt>
      <trkpt lat="45.80794" lon="4.94748">
        <ele>179.604</ele>
        <time>2011-05-30T13:24:28Z</time>
      </trkpt>
      <trkpt lat="45.80775" lon="4.94764">
        <ele>177.49</ele>
        <time>2011-05-30T13:24:34Z</time>
      </trkpt>
      <trkpt lat="45.80772" lon="4.94793">
        <ele>179.676</ele>
        <time>2011-05-30T13:24:40Z</time>
      </trkpt>
      <trkpt lat="45.80772" lon="4.94801">
        <ele>180.49</ele>
        <time>2011-05-30T13:24:42Z</time>
      </trkpt>
      <trkpt lat="45.8078" lon="4.94835">
        <ele>179.772</ele>
        <time>2011-05-30T13:24:49Z</time>
      </trkpt>
      <trkpt lat="45.80794" lon="4.94857">
        <ele>180</ele>
        <time>2011-05-30T13:24:54Z</time>
      </trkpt>
      <trkpt lat="45.80796" lon="4.9486">
        <ele>179.992</ele>
        <time>2011-05-30T13:24:55Z</time>
      </trkpt>
      <trkpt lat="45.80818" lon="4.94885">
        <ele>179.339</ele>
        <time>2011-05-30T13:25:03Z</time>
      </trkpt>
      <trkpt lat="45.80877" lon="4.94922">
        <ele>180.565</ele>
        <time>2011-05-30T13:25:17Z</time>
      </trkpt>
      <trkpt lat="45.80882" lon="4.94927">
        <ele>180.526</ele>
        <time>2011-05-30T13:25:19Z</time>
      </trkpt>
      <trkpt lat="45.80891" lon="4.9494">
        <ele>181.833</ele>
        <time>2011-05-30T13:25:23Z</time>
      </trkpt>
      <trkpt lat="45.80913" lon="4.94974">
        <ele>181.203</ele>
        <time>2011-05-30T13:25:31Z</time>
      </trkpt>
      <trkpt lat="45.80947" lon="4.95017">
        <ele>181.097</ele>
        <time>2011-05-30T13:25:42Z</time>
      </trkpt>
      <trkpt lat="45.80961" lon="4.95044">
        <ele>181.281</ele>
        <time>2011-05-30T13:25:47Z</time>
      </trkpt>
      <trkpt lat="45.80988" lon="4.95082">
        <ele>182.006</ele>
        <time>2011-05-30T13:25:54Z</time>
      </trkpt>
      <trkpt lat="45.81028" lon="4.95145">
        <ele>182.22</ele>
        <time>2011-05-30T13:26:04Z</time>
      </trkpt>
      <trkpt lat="45.81083" lon="4.95187">
        <ele>181.768</ele>
        <time>2011-05-30T13:26:15Z</time>
      </trkpt>
      <trkpt lat="45.81095" lon="4.95214">
        <ele>180.813</ele>
        <time>2011-05-30T13:26:19Z</time>
      </trkpt>
      <trkpt lat="45.81097" lon="4.95249">
        <ele>181.309</ele>
        <time>2011-05-30T13:26:24Z</time>
      </trkpt>
      <trkpt lat="45.81097" lon="4.95279">
        <ele>181.667</ele>
        <time>2011-05-30T13:26:30Z</time>
      </trkpt>
      <trkpt lat="45.81091" lon="4.95298">
        <ele>180.974</ele>
        <time>2011-05-30T13:26:35Z</time>
      </trkpt>
      <trkpt lat="45.81091" lon="4.95316">
        <ele>180.74</ele>
        <time>2011-05-30T13:26:38Z</time>
      </trkpt>
      <trkpt lat="45.81093" lon="4.95334">
        <ele>181.755</ele>
        <time>2011-05-30T13:26:41Z</time>
      </trkpt>
      <trkpt lat="45.81104" lon="4.95338">
        <ele>183.213</ele>
        <time>2011-05-30T13:26:44Z</time>
      </trkpt>
      <trkpt lat="45.81107" lon="4.95339">
        <ele>183.86</ele>
        <time>2011-05-30T13:26:45Z</time>
      </trkpt>
      <trkpt lat="45.81117" lon="4.95329">
        <ele>184.102</ele>
        <time>2011-05-30T13:26:49Z</time>
      </trkpt>
      <trkpt lat="45.81122" lon="4.9532">
        <ele>184.241</ele>
        <time>2011-05-30T13:26:51Z</time>
      </trkpt>
      <trkpt lat="45.81153" lon="4.95326">
        <ele>183.253</ele>
        <time>2011-05-30T13:27:00Z</time>
      </trkpt>
      <trkpt lat="45.81157" lon="4.95331">
        <ele>182.023</ele>
        <time>2011-05-30T13:27:02Z</time>
      </trkpt>
      <trkpt lat="45.81169" lon="4.95339">
        <ele>183.235</ele>
        <time>2011-05-30T13:27:04Z</time>
      </trkpt>
      <trkpt lat="45.81194" lon="4.95356">
        <ele>182.415</ele>
        <time>2011-05-30T13:27:09Z</time>
      </trkpt>
      <trkpt lat="45.81209" lon="4.95368">
        <ele>183.053</ele>
        <time>2011-05-30T13:27:12Z</time>
      </trkpt>
      <trkpt lat="45.81231" lon="4.95363">
        <ele>183.226</ele>
        <time>2011-05-30T13:27:17Z</time>
      </trkpt>
      <trkpt lat="45.81244" lon="4.95357">
        <ele>182.905</ele>
        <time>2011-05-30T13:27:20Z</time>
      </trkpt>
      <trkpt lat="45.81264" lon="4.95393">
        <ele>183.861</ele>
        <time>2011-05-30T13:27:27Z</time>
      </trkpt>
      <trkpt lat="45.81267" lon="4.954">
        <ele>183.854</ele>
        <time>2011-05-30T13:27:28Z</time>
      </trkpt>
      <trkpt lat="45.81286" lon="4.95429">
        <ele>182.402</ele>
        <time>2011-05-30T13:27:33Z</time>
      </trkpt>
      <trkpt lat="45.81293" lon="4.95443">
        <ele>181.698</ele>
        <time>2011-05-30T13:27:35Z</time>
      </trkpt>
      <trkpt lat="45.81294" lon="4.95458">
        <ele>182.002</ele>
        <time>2011-05-30T13:27:37Z</time>
      </trkpt>
      <trkpt lat="45.81291" lon="4.95474">
        <ele>181.909</ele>
        <time>2011-05-30T13:27:39Z</time>
      </trkpt>
      <trkpt lat="45.81293" lon="4.95508">
        <ele>182.039</ele>
        <time>2011-05-30T13:27:43Z</time>
      </trkpt>
      <trkpt lat="45.81298" lon="4.95522">
        <ele>182.001</ele>
        <time>2011-05-30T13:27:45Z</time>
      </trkpt>
      <trkpt lat="45.81309" lon="4.95541">
        <ele>183.412</ele>
        <time>2011-05-30T13:27:48Z</time>
      </trkpt>
      <trkpt lat="45.81314" lon="4.95559">
        <ele>183.861</ele>
        <time>2011-05-30T13:27:51Z</time>
      </trkpt>
      <trkpt lat="45.81318" lon="4.95582">
        <ele>184.738</ele>
        <time>2011-05-30T13:27:54Z</time>
      </trkpt>
      <trkpt lat="45.81325" lon="4.95607">
        <ele>184.632</ele>
        <time>2011-05-30T13:27:57Z</time>
      </trkpt>
      <trkpt lat="45.81326" lon="4.95639">
        <ele>184.229</ele>
        <time>2011-05-30T13:28:01Z</time>
      </trkpt>
      <trkpt lat="45.81324" lon="4.95654">
        <ele>184.373</ele>
        <time>2011-05-30T13:28:03Z</time>
      </trkpt>
      <trkpt lat="45.81327" lon="4.95684">
        <ele>184.797</ele>
        <time>2011-05-30T13:28:07Z</time>
      </trkpt>
      <trkpt lat="45.81312" lon="4.95723">
        <ele>185.016</ele>
        <time>2011-05-30T13:28:14Z</time>
      </trkpt>
      <trkpt lat="45.81303" lon="4.95733">
        <ele>184.125</ele>
        <time>2011-05-30T13:28:16Z</time>
      </trkpt>
      <trkpt lat="45.813" lon="4.95762">
        <ele>184.319</ele>
        <time>2011-05-30T13:28:20Z</time>
      </trkpt>
      <trkpt lat="45.81306" lon="4.95791">
        <ele>184.884</ele>
        <time>2011-05-30T13:28:24Z</time>
      </trkpt>
      <trkpt lat="45.81287" lon="4.9586">
        <ele>184.432</ele>
        <time>2011-05-30T13:28:34Z</time>
      </trkpt>
      <trkpt lat="45.81283" lon="4.95864">
        <ele>184.426</ele>
        <time>2011-05-30T13:28:35Z</time>
      </trkpt>
      <trkpt lat="45.81273" lon="4.95873">
        <ele>183.992</ele>
        <time>2011-05-30T13:28:37Z</time>
      </trkpt>
      <trkpt lat="45.81252" lon="4.95887">
        <ele>183.938</ele>
        <time>2011-05-30T13:28:41Z</time>
      </trkpt>
      <trkpt lat="45.81241" lon="4.95897">
        <ele>183.887</ele>
        <time>2011-05-30T13:28:43Z</time>
      </trkpt>
      <trkpt lat="45.81228" lon="4.95914">
        <ele>183.19</ele>
        <time>2011-05-30T13:28:46Z</time>
      </trkpt>
      <trkpt lat="45.81202" lon="4.95944">
        <ele>180.473</ele>
        <time>2011-05-30T13:28:51Z</time>
      </trkpt>
      <trkpt lat="45.81197" lon="4.95951">
        <ele>180.36</ele>
        <time>2011-05-30T13:28:52Z</time>
      </trkpt>
      <trkpt lat="45.81192" lon="4.96004">
        <ele>181.329</ele>
        <time>2011-05-30T13:28:58Z</time>
      </trkpt>
      <trkpt lat="45.81172" lon="4.96181">
        <ele>181.647</ele>
        <time>2011-05-30T13:29:18Z</time>
      </trkpt>
      <trkpt lat="45.81162" lon="4.96251">
        <ele>180.8</ele>
        <time>2011-05-30T13:29:26Z</time>
      </trkpt>
      <trkpt lat="45.81178" lon="4.96265">
        <ele>181.194</ele>
        <time>2011-05-30T13:29:32Z</time>
      </trkpt>
      <trkpt lat="45.8121" lon="4.96246">
        <ele>184.45</ele>
        <time>2011-05-30T13:29:41Z</time>
      </trkpt>
      <trkpt lat="45.81237" lon="4.96228">
        <ele>184.494</ele>
        <time>2011-05-30T13:29:49Z</time>
      </trkpt>
      <trkpt lat="45.81251" lon="4.96204">
        <ele>184.446</ele>
        <time>2011-05-30T13:29:54Z</time>
      </trkpt>
      <trkpt lat="45.81273" lon="4.96188">
        <ele>183.22</ele>
        <time>2011-05-30T13:29:59Z</time>
      </trkpt>
      <trkpt lat="45.81279" lon="4.96189">
        <ele>184.736</ele>
        <time>2011-05-30T13:30:02Z</time>
      </trkpt>
      <trkpt lat="45.81279" lon="4.9619">
        <ele>185.098</ele>
        <time>2011-05-30T13:30:19Z</time>
      </trkpt>
      <trkpt lat="45.8128" lon="4.9619">
        <ele>185.371</ele>
        <time>2011-05-30T13:30:28Z</time>
      </trkpt>
      <trkpt lat="45.81284" lon="4.96191">
        <ele>184.745</ele>
        <time>2011-05-30T13:30:31Z</time>
      </trkpt>
      <trkpt lat="45.81286" lon="4.96203">
        <ele>184.482</ele>
        <time>2011-05-30T13:30:35Z</time>
      </trkpt>
      <trkpt lat="45.81294" lon="4.96222">
        <ele>184.302</ele>
        <time>2011-05-30T13:30:39Z</time>
      </trkpt>
      <trkpt lat="45.81314" lon="4.96239">
        <ele>183.028</ele>
        <time>2011-05-30T13:30:46Z</time>
      </trkpt>
      <trkpt lat="45.81316" lon="4.9623">
        <ele>183.495</ele>
        <time>2011-05-30T13:30:48Z</time>
      </trkpt>
      <trkpt lat="45.81329" lon="4.96228">
        <ele>183.105</ele>
        <time>2011-05-30T13:30:55Z</time>
      </trkpt>
      <trkpt lat="45.8133" lon="4.96233">
        <ele>182.329</ele>
        <time>2011-05-30T13:30:56Z</time>
      </trkpt>
      <trkpt lat="45.8134" lon="4.9625">
        <ele>182.421</ele>
        <time>2011-05-30T13:31:01Z</time>
      </trkpt>
      <trkpt lat="45.81344" lon="4.96283">
        <ele>182.298</ele>
        <time>2011-05-30T13:31:08Z</time>
      </trkpt>
      <trkpt lat="45.81345" lon="4.96295">
        <ele>182.501</ele>
        <time>2011-05-30T13:31:11Z</time>
      </trkpt>
      <trkpt lat="45.81356" lon="4.96314">
        <ele>181.609</ele>
        <time>2011-05-30T13:31:15Z</time>
      </trkpt>
      <trkpt lat="45.81372" lon="4.96336">
        <ele>182.066</ele>
        <time>2011-05-30T13:31:21Z</time>
      </trkpt>
      <trkpt lat="45.81382" lon="4.96348">
        <ele>181.875</ele>
        <time>2011-05-30T13:31:24Z</time>
      </trkpt>
      <trkpt lat="45.81388" lon="4.96362">
        <ele>181.306</ele>
        <time>2011-05-30T13:31:27Z</time>
      </trkpt>
      <trkpt lat="45.81397" lon="4.9638">
        <ele>181.282</ele>
        <time>2011-05-30T13:31:32Z</time>
      </trkpt>
      <trkpt lat="45.814" lon="4.96395">
        <ele>181.172</ele>
        <time>2011-05-30T13:31:35Z</time>
      </trkpt>
      <trkpt lat="45.81408" lon="4.96417">
        <ele>180.844</ele>
        <time>2011-05-30T13:31:39Z</time>
      </trkpt>
      <trkpt lat="45.81427" lon="4.96439">
        <ele>180.654</ele>
        <time>2011-05-30T13:31:44Z</time>
      </trkpt>
      <trkpt lat="45.81434" lon="4.96445">
        <ele>181.231</ele>
        <time>2011-05-30T13:31:46Z</time>
      </trkpt>
      <trkpt lat="45.81445" lon="4.96456">
        <ele>180.799</ele>
        <time>2011-05-30T13:31:49Z</time>
      </trkpt>
      <trkpt lat="45.81456" lon="4.96461">
        <ele>181.491</ele>
        <time>2011-05-30T13:31:52Z</time>
      </trkpt>
      <trkpt lat="45.81466" lon="4.96481">
        <ele>181.085</ele>
        <time>2011-05-30T13:31:57Z</time>
      </trkpt>
      <trkpt lat="45.8147" lon="4.96494">
        <ele>181.04</ele>
        <time>2011-05-30T13:32:01Z</time>
      </trkpt>
      <trkpt lat="45.81486" lon="4.96533">
        <ele>181.193</ele>
        <time>2011-05-30T13:32:10Z</time>
      </trkpt>
      <trkpt lat="45.81493" lon="4.96532">
        <ele>181.612</ele>
        <time>2011-05-30T13:32:14Z</time>
      </trkpt>
      <trkpt lat="45.81499" lon="4.96526">
        <ele>181.147</ele>
        <time>2011-05-30T13:32:17Z</time>
      </trkpt>
      <trkpt lat="45.81506" lon="4.96531">
        <ele>181.194</ele>
        <time>2011-05-30T13:32:21Z</time>
      </trkpt>
      <trkpt lat="45.81502" lon="4.96548">
        <ele>177.064</ele>
        <time>2011-05-30T13:32:24Z</time>
      </trkpt>
      <trkpt lat="45.81508" lon="4.96573">
        <ele>178.159</ele>
        <time>2011-05-30T13:32:28Z</time>
      </trkpt>
      <trkpt lat="45.8151" lon="4.96595">
        <ele>178.739</ele>
        <time>2011-05-30T13:32:32Z</time>
      </trkpt>
      <trkpt lat="45.8151" lon="4.96649">
        <ele>177.955</ele>
        <time>2011-05-30T13:32:42Z</time>
      </trkpt>
      <trkpt lat="45.81509" lon="4.9666">
        <ele>177.865</ele>
        <time>2011-05-30T13:32:44Z</time>
      </trkpt>
      <trkpt lat="45.81514" lon="4.96688">
        <ele>177.744</ele>
        <time>2011-05-30T13:32:50Z</time>
      </trkpt>
      <trkpt lat="45.81525" lon="4.96745">
        <ele>178.203</ele>
        <time>2011-05-30T13:32:58Z</time>
      </trkpt>
      <trkpt lat="45.81519" lon="4.96782">
        <ele>178.306</ele>
        <time>2011-05-30T13:33:05Z</time>
      </trkpt>
      <trkpt lat="45.81532" lon="4.96832">
        <ele>177.736</ele>
        <time>2011-05-30T13:33:15Z</time>
      </trkpt>
      <trkpt lat="45.81534" lon="4.96845">
        <ele>177.794</ele>
        <time>2011-05-30T13:33:17Z</time>
      </trkpt>
      <trkpt lat="45.81535" lon="4.96868">
        <ele>177.785</ele>
        <time>2011-05-30T13:33:22Z</time>
      </trkpt>
      <trkpt lat="45.81532" lon="4.96888">
        <ele>178</ele>
        <time>2011-05-30T13:33:26Z</time>
      </trkpt>
      <trkpt lat="45.81536" lon="4.96904">
        <ele>178.539</ele>
        <time>2011-05-30T13:33:30Z</time>
      </trkpt>
      <trkpt lat="45.81546" lon="4.96927">
        <ele>178.695</ele>
        <time>2011-05-30T13:33:36Z</time>
      </trkpt>
      <trkpt lat="45.81544" lon="4.96982">
        <ele>178.251</ele>
        <time>2011-05-30T13:33:46Z</time>
      </trkpt>
      <trkpt lat="45.81543" lon="4.96989">
        <ele>178.039</ele>
        <time>2011-05-30T13:33:48Z</time>
      </trkpt>
      <trkpt lat="45.81548" lon="4.96999">
        <ele>178.409</ele>
        <time>2011-05-30T13:33:50Z</time>
      </trkpt>
      <trkpt lat="45.81548" lon="4.97024">
        <ele>178.178</ele>
        <time>2011-05-30T13:33:55Z</time>
      </trkpt>
      <trkpt lat="45.81551" lon="4.97051">
        <ele>177.765</ele>
        <time>2011-05-30T13:34:00Z</time>
      </trkpt>
      <trkpt lat="45.81558" lon="4.97071">
        <ele>178.055</ele>
        <time>2011-05-30T13:34:04Z</time>
      </trkpt>
      <trkpt lat="45.8156" lon="4.97091">
        <ele>178.296</ele>
        <time>2011-05-30T13:34:09Z</time>
      </trkpt>
      <trkpt lat="45.81563" lon="4.97101">
        <ele>178.824</ele>
        <time>2011-05-30T13:34:11Z</time>
      </trkpt>
      <trkpt lat="45.81571" lon="4.97129">
        <ele>177.934</ele>
        <time>2011-05-30T13:34:15Z</time>
      </trkpt>
      <trkpt lat="45.81569" lon="4.97145">
        <ele>178.05</ele>
        <time>2011-05-30T13:34:18Z</time>
      </trkpt>
      <trkpt lat="45.81571" lon="4.97195">
        <ele>178.142</ele>
        <time>2011-05-30T13:34:28Z</time>
      </trkpt>
      <trkpt lat="45.81574" lon="4.97244">
        <ele>178.345</ele>
        <time>2011-05-30T13:34:38Z</time>
      </trkpt>
      <trkpt lat="45.81573" lon="4.97257">
        <ele>177.845</ele>
        <time>2011-05-30T13:34:52Z</time>
      </trkpt>
      <trkpt lat="45.81554" lon="4.97275">
        <ele>176.758</ele>
        <time>2011-05-30T13:35:00Z</time>
      </trkpt>
      <trkpt lat="45.8155" lon="4.97284">
        <ele>176.594</ele>
        <time>2011-05-30T13:35:02Z</time>
      </trkpt>
      <trkpt lat="45.81551" lon="4.97297">
        <ele>177.732</ele>
        <time>2011-05-30T13:35:05Z</time>
      </trkpt>
      <trkpt lat="45.81537" lon="4.97313">
        <ele>177.721</ele>
        <time>2011-05-30T13:35:10Z</time>
      </trkpt>
      <trkpt lat="45.81522" lon="4.97322">
        <ele>175.554</ele>
        <time>2011-05-30T13:35:14Z</time>
      </trkpt>
      <trkpt lat="45.8152" lon="4.97329">
        <ele>177.928</ele>
        <time>2011-05-30T13:35:17Z</time>
      </trkpt>
      <trkpt lat="45.81527" lon="4.97344">
        <ele>177.921</ele>
        <time>2011-05-30T13:35:22Z</time>
      </trkpt>
      <trkpt lat="45.81537" lon="4.97345">
        <ele>177.77</ele>
        <time>2011-05-30T13:35:26Z</time>
      </trkpt>
      <trkpt lat="45.81544" lon="4.97348">
        <ele>177.607</ele>
        <time>2011-05-30T13:35:29Z</time>
      </trkpt>
      <trkpt lat="45.81551" lon="4.97361">
        <ele>178.904</ele>
        <time>2011-05-30T13:35:35Z</time>
      </trkpt>
      <trkpt lat="45.81557" lon="4.97382">
        <ele>178.651</ele>
        <time>2011-05-30T13:35:41Z</time>
      </trkpt>
      <trkpt lat="45.81567" lon="4.9741">
        <ele>178.104</ele>
        <time>2011-05-30T13:35:47Z</time>
      </trkpt>
      <trkpt lat="45.81554" lon="4.97439">
        <ele>177.146</ele>
        <time>2011-05-30T13:35:53Z</time>
      </trkpt>
      <trkpt lat="45.81538" lon="4.97466">
        <ele>177.351</ele>
        <time>2011-05-30T13:35:59Z</time>
      </trkpt>
      <trkpt lat="45.81538" lon="4.97517">
        <ele>177.566</ele>
        <time>2011-05-30T13:36:08Z</time>
      </trkpt>
      <trkpt lat="45.81502" lon="4.97558">
        <ele>177.168</ele>
        <time>2011-05-30T13:36:18Z</time>
      </trkpt>
      <trkpt lat="45.81482" lon="4.97578">
        <ele>176.829</ele>
        <time>2011-05-30T13:36:23Z</time>
      </trkpt>
      <trkpt lat="45.81475" lon="4.97604">
        <ele>177.31</ele>
        <time>2011-05-30T13:36:29Z</time>
      </trkpt>
      <trkpt lat="45.81531" lon="4.97666">
        <ele>177.508</ele>
        <time>2011-05-30T13:36:43Z</time>
      </trkpt>
      <trkpt lat="45.81572" lon="4.97721">
        <ele>177.99</ele>
        <time>2011-05-30T13:36:53Z</time>
      </trkpt>
      <trkpt lat="45.81591" lon="4.97729">
        <ele>178.983</ele>
        <time>2011-05-30T13:36:57Z</time>
      </trkpt>
      <trkpt lat="45.81604" lon="4.97751">
        <ele>178.871</ele>
        <time>2011-05-30T13:37:02Z</time>
      </trkpt>
      <trkpt lat="45.8161" lon="4.97793">
        <ele>178.482</ele>
        <time>2011-05-30T13:37:09Z</time>
      </trkpt>
      <trkpt lat="45.81621" lon="4.9783">
        <ele>178.208</ele>
        <time>2011-05-30T13:37:14Z</time>
      </trkpt>
      <trkpt lat="45.81641" lon="4.9785">
        <ele>179.643</ele>
        <time>2011-05-30T13:37:20Z</time>
      </trkpt>
      <trkpt lat="45.81635" lon="4.97868">
        <ele>178.019</ele>
        <time>2011-05-30T13:37:25Z</time>
      </trkpt>
      <trkpt lat="45.81619" lon="4.97892">
        <ele>178.708</ele>
        <time>2011-05-30T13:37:30Z</time>
      </trkpt>
      <trkpt lat="45.81602" lon="4.97928">
        <ele>177.851</ele>
        <time>2011-05-30T13:37:36Z</time>
      </trkpt>
      <trkpt lat="45.81595" lon="4.97946">
        <ele>179.051</ele>
        <time>2011-05-30T13:37:39Z</time>
      </trkpt>
      <trkpt lat="45.81565" lon="4.98002">
        <ele>177.677</ele>
        <time>2011-05-30T13:37:49Z</time>
      </trkpt>
      <trkpt lat="45.8156" lon="4.98013">
        <ele>178.214</ele>
        <time>2011-05-30T13:37:51Z</time>
      </trkpt>
      <trkpt lat="45.81554" lon="4.98038">
        <ele>178.65</ele>
        <time>2011-05-30T13:37:56Z</time>
      </trkpt>
      <trkpt lat="45.8155" lon="4.98057">
        <ele>178.406</ele>
        <time>2011-05-30T13:37:59Z</time>
      </trkpt>
      <trkpt lat="45.81533" lon="4.98106">
        <ele>178.763</ele>
        <time>2011-05-30T13:38:08Z</time>
      </trkpt>
      <trkpt lat="45.81516" lon="4.98166">
        <ele>178.485</ele>
        <time>2011-05-30T13:38:18Z</time>
      </trkpt>
      <trkpt lat="45.81512" lon="4.98183">
        <ele>178.351</ele>
        <time>2011-05-30T13:38:21Z</time>
      </trkpt>
      <trkpt lat="45.81508" lon="4.98204">
        <ele>179.012</ele>
        <time>2011-05-30T13:38:25Z</time>
      </trkpt>
      <trkpt lat="45.81502" lon="4.98245">
        <ele>179.476</ele>
        <time>2011-05-30T13:38:33Z</time>
      </trkpt>
      <trkpt lat="45.81493" lon="4.98267">
        <ele>179.014</ele>
        <time>2011-05-30T13:38:38Z</time>
      </trkpt>
      <trkpt lat="45.81481" lon="4.98384">
        <ele>178.884</ele>
        <time>2011-05-30T13:38:54Z</time>
      </trkpt>
      <trkpt lat="45.81477" lon="4.98401">
        <ele>179.124</ele>
        <time>2011-05-30T13:38:57Z</time>
      </trkpt>
      <trkpt lat="45.81479" lon="4.98422">
        <ele>179.187</ele>
        <time>2011-05-30T13:39:01Z</time>
      </trkpt>
      <trkpt lat="45.81477" lon="4.98447">
        <ele>178.702</ele>
        <time>2011-05-30T13:39:05Z</time>
      </trkpt>
      <trkpt lat="45.81452" lon="4.98503">
        <ele>177.503</ele>
        <time>2011-05-30T13:39:16Z</time>
      </trkpt>
      <trkpt lat="45.81441" lon="4.98519">
        <ele>178.219</ele>
        <time>2011-05-30T13:39:28Z</time>
      </trkpt>
      <trkpt lat="45.81437" lon="4.98531">
        <ele>178.203</ele>
        <time>2011-05-30T13:39:50Z</time>
      </trkpt>
      <trkpt lat="45.81433" lon="4.98538">
        <ele>178.162</ele>
        <time>2011-05-30T13:39:53Z</time>
      </trkpt>
      <trkpt lat="45.81433" lon="4.98555">
        <ele>177.597</ele>
        <time>2011-05-30T13:39:57Z</time>
      </trkpt>
      <trkpt lat="45.81431" lon="4.98575">
        <ele>177.442</ele>
        <time>2011-05-30T13:40:01Z</time>
      </trkpt>
      <trkpt lat="45.81426" lon="4.98597">
        <ele>177.508</ele>
        <time>2011-05-30T13:40:05Z</time>
      </trkpt>
      <trkpt lat="45.8142" lon="4.98617">
        <ele>175.774</ele>
        <time>2011-05-30T13:40:08Z</time>
      </trkpt>
      <trkpt lat="45.8141" lon="4.98654">
        <ele>176.348</ele>
        <time>2011-05-30T13:40:14Z</time>
      </trkpt>
      <trkpt lat="45.81401" lon="4.98704">
        <ele>176.688</ele>
        <time>2011-05-30T13:40:21Z</time>
      </trkpt>
      <trkpt lat="45.81396" lon="4.98724">
        <ele>176.05</ele>
        <time>2011-05-30T13:40:24Z</time>
      </trkpt>
      <trkpt lat="45.81385" lon="4.98752">
        <ele>175.847</ele>
        <time>2011-05-30T13:40:28Z</time>
      </trkpt>
      <trkpt lat="45.8138" lon="4.98774">
        <ele>175.486</ele>
        <time>2011-05-30T13:40:31Z</time>
      </trkpt>
      <trkpt lat="45.81368" lon="4.98807">
        <ele>175.988</ele>
        <time>2011-05-30T13:40:36Z</time>
      </trkpt>
      <trkpt lat="45.8136" lon="4.98856">
        <ele>175.414</ele>
        <time>2011-05-30T13:40:42Z</time>
      </trkpt>
      <trkpt lat="45.81358" lon="4.98871">
        <ele>175.834</ele>
        <time>2011-05-30T13:40:44Z</time>
      </trkpt>
      <trkpt lat="45.81353" lon="4.9888">
        <ele>176.153</ele>
        <time>2011-05-30T13:40:46Z</time>
      </trkpt>
      <trkpt lat="45.81346" lon="4.98897">
        <ele>176.026</ele>
        <time>2011-05-30T13:40:49Z</time>
      </trkpt>
      <trkpt lat="45.81342" lon="4.98924">
        <ele>176.49</ele>
        <time>2011-05-30T13:40:53Z</time>
      </trkpt>
      <trkpt lat="45.81341" lon="4.98979">
        <ele>176.177</ele>
        <time>2011-05-30T13:41:02Z</time>
      </trkpt>
      <trkpt lat="45.81339" lon="4.98997">
        <ele>176.221</ele>
        <time>2011-05-30T13:41:05Z</time>
      </trkpt>
      <trkpt lat="45.81325" lon="4.99001">
        <ele>175.778</ele>
        <time>2011-05-30T13:41:10Z</time>
      </trkpt>
      <trkpt lat="45.81265" lon="4.98934">
        <ele>174.77</ele>
        <time>2011-05-30T13:41:26Z</time>
      </trkpt>
      <trkpt lat="45.81232" lon="4.98891">
        <ele>174.964</ele>
        <time>2011-05-30T13:41:35Z</time>
      </trkpt>
      <trkpt lat="45.81223" lon="4.98875">
        <ele>174.976</ele>
        <time>2011-05-30T13:41:38Z</time>
      </trkpt>
      <trkpt lat="45.81204" lon="4.98852">
        <ele>173.536</ele>
        <time>2011-05-30T13:41:43Z</time>
      </trkpt>
      <trkpt lat="45.81186" lon="4.98835">
        <ele>176.295</ele>
        <time>2011-05-30T13:41:47Z</time>
      </trkpt>
      <trkpt lat="45.81172" lon="4.98826">
        <ele>175.899</ele>
        <time>2011-05-30T13:41:50Z</time>
      </trkpt>
      <trkpt lat="45.81146" lon="4.98841">
        <ele>177.104</ele>
        <time>2011-05-30T13:41:56Z</time>
      </trkpt>
      <trkpt lat="45.81138" lon="4.9885">
        <ele>177.215</ele>
        <time>2011-05-30T13:41:58Z</time>
      </trkpt>
      <trkpt lat="45.81076" lon="4.98937">
        <ele>176.07</ele>
        <time>2011-05-30T13:42:13Z</time>
      </trkpt>
      <trkpt lat="45.81042" lon="4.98985">
        <ele>176.641</ele>
        <time>2011-05-30T13:42:21Z</time>
      </trkpt>
      <trkpt lat="45.81018" lon="4.99053">
        <ele>175.919</ele>
        <time>2011-05-30T13:42:30Z</time>
      </trkpt>
      <trkpt lat="45.80957" lon="4.99145">
        <ele>175.268</ele>
        <time>2011-05-30T13:42:44Z</time>
      </trkpt>
      <trkpt lat="45.80931" lon="4.99185">
        <ele>176.629</ele>
        <time>2011-05-30T13:42:50Z</time>
      </trkpt>
      <trkpt lat="45.80914" lon="4.99213">
        <ele>175.647</ele>
        <time>2011-05-30T13:42:54Z</time>
      </trkpt>
      <trkpt lat="45.809" lon="4.99255">
        <ele>175.675</ele>
        <time>2011-05-30T13:42:59Z</time>
      </trkpt>
      <trkpt lat="45.80891" lon="4.99298">
        <ele>175.998</ele>
        <time>2011-05-30T13:43:04Z</time>
      </trkpt>
      <trkpt lat="45.80879" lon="4.99327">
        <ele>175.96</ele>
        <time>2011-05-30T13:43:08Z</time>
      </trkpt>
      <trkpt lat="45.80896" lon="4.99403">
        <ele>176.865</ele>
        <time>2011-05-30T13:43:18Z</time>
      </trkpt>
      <trkpt lat="45.80923" lon="4.99526">
        <ele>176.204</ele>
        <time>2011-05-30T13:43:35Z</time>
      </trkpt>
      <trkpt lat="45.8093" lon="4.99566">
        <ele>175.347</ele>
        <time>2011-05-30T13:43:40Z</time>
      </trkpt>
      <trkpt lat="45.80917" lon="4.99599">
        <ele>175.49</ele>
        <time>2011-05-30T13:43:45Z</time>
      </trkpt>
      <trkpt lat="45.80883" lon="4.99574">
        <ele>175.887</ele>
        <time>2011-05-30T13:43:52Z</time>
      </trkpt>
      <trkpt lat="45.80861" lon="4.99572">
        <ele>174.996</ele>
        <time>2011-05-30T13:43:56Z</time>
      </trkpt>
      <trkpt lat="45.80776" lon="4.99607">
        <ele>174.029</ele>
        <time>2011-05-30T13:44:11Z</time>
      </trkpt>
      <trkpt lat="45.80755" lon="4.99618">
        <ele>176.04</ele>
        <time>2011-05-30T13:44:15Z</time>
      </trkpt>
      <trkpt lat="45.80745" lon="4.9963">
        <ele>177.438</ele>
        <time>2011-05-30T13:44:18Z</time>
      </trkpt>
      <trkpt lat="45.80758" lon="4.99651">
        <ele>177.04</ele>
        <time>2011-05-30T13:44:22Z</time>
      </trkpt>
      <trkpt lat="45.80782" lon="4.9967">
        <ele>176.36</ele>
        <time>2011-05-30T13:44:27Z</time>
      </trkpt>
      <trkpt lat="45.80803" lon="4.997">
        <ele>176.113</ele>
        <time>2011-05-30T13:44:32Z</time>
      </trkpt>
      <trkpt lat="45.80846" lon="4.99832">
        <ele>176.568</ele>
        <time>2011-05-30T13:44:49Z</time>
      </trkpt>
      <trkpt lat="45.80848" lon="4.9984">
        <ele>176.564</ele>
        <time>2011-05-30T13:44:50Z</time>
      </trkpt>
      <trkpt lat="45.80898" lon="4.99958">
        <ele>176.638</ele>
        <time>2011-05-30T13:45:06Z</time>
      </trkpt>
      <trkpt lat="45.80931" lon="5.00086">
        <ele>177.703</ele>
        <time>2011-05-30T13:45:22Z</time>
      </trkpt>
      <trkpt lat="45.80951" lon="5.0021">
        <ele>176.67</ele>
        <time>2011-05-30T13:45:37Z</time>
      </trkpt>
      <trkpt lat="45.80962" lon="5.00335">
        <ele>176.826</ele>
        <time>2011-05-30T13:45:52Z</time>
      </trkpt>
      <trkpt lat="45.80965" lon="5.00392">
        <ele>177.207</ele>
        <time>2011-05-30T13:45:59Z</time>
      </trkpt>
      <trkpt lat="45.80963" lon="5.00429">
        <ele>177.689</ele>
        <time>2011-05-30T13:46:04Z</time>
      </trkpt>
      <trkpt lat="45.80946" lon="5.00571">
        <ele>175.78</ele>
        <time>2011-05-30T13:46:20Z</time>
      </trkpt>
      <trkpt lat="45.80924" lon="5.00683">
        <ele>175.496</ele>
        <time>2011-05-30T13:46:34Z</time>
      </trkpt>
      <trkpt lat="45.80917" lon="5.00708">
        <ele>176.266</ele>
        <time>2011-05-30T13:46:38Z</time>
      </trkpt>
      <trkpt lat="45.80904" lon="5.00712">
        <ele>176.729</ele>
        <time>2011-05-30T13:46:45Z</time>
      </trkpt>
      <trkpt lat="45.80898" lon="5.00708">
        <ele>176.721</ele>
        <time>2011-05-30T13:46:48Z</time>
      </trkpt>
      <trkpt lat="45.80896" lon="5.00673">
        <ele>173.996</ele>
        <time>2011-05-30T13:46:57Z</time>
      </trkpt>
      <trkpt lat="45.80892" lon="5.00661">
        <ele>173.633</ele>
        <time>2011-05-30T13:47:02Z</time>
      </trkpt>
      <trkpt lat="45.80877" lon="5.0064">
        <ele>175.049</ele>
        <time>2011-05-30T13:47:12Z</time>
      </trkpt>
      <trkpt lat="45.80869" lon="5.00632">
        <ele>175.499</ele>
        <time>2011-05-30T13:47:23Z</time>
      </trkpt>
      <trkpt lat="45.80852" lon="5.00619">
        <ele>174.184</ele>
        <time>2011-05-30T13:47:34Z</time>
      </trkpt>
      <trkpt lat="45.80815" lon="5.00595">
        <ele>174.848</ele>
        <time>2011-05-30T13:47:46Z</time>
      </trkpt>
      <trkpt lat="45.8081" lon="5.00594">
        <ele>174.846</ele>
        <time>2011-05-30T13:47:47Z</time>
      </trkpt>
      <trkpt lat="45.80806" lon="5.00592">
        <ele>174.236</ele>
        <time>2011-05-30T13:47:48Z</time>
      </trkpt>
      <trkpt lat="45.80787" lon="5.0059">
        <ele>175.758</ele>
        <time>2011-05-30T13:47:52Z</time>
      </trkpt>
      <trkpt lat="45.80773" lon="5.00583">
        <ele>173.92</ele>
        <time>2011-05-30T13:47:55Z</time>
      </trkpt>
      <trkpt lat="45.80756" lon="5.00581">
        <ele>175.338</ele>
        <time>2011-05-30T13:47:59Z</time>
      </trkpt>
      <trkpt lat="45.80738" lon="5.00573">
        <ele>174.746</ele>
        <time>2011-05-30T13:48:03Z</time>
      </trkpt>
      <trkpt lat="45.80718" lon="5.00573">
        <ele>175.586</ele>
        <time>2011-05-30T13:48:07Z</time>
      </trkpt>
      <trkpt lat="45.80708" lon="5.00559">
        <ele>174.253</ele>
        <time>2011-05-30T13:48:10Z</time>
      </trkpt>
      <trkpt lat="45.80698" lon="5.00559">
        <ele>175.664</ele>
        <time>2011-05-30T13:48:13Z</time>
      </trkpt>
      <trkpt lat="45.80681" lon="5.00603">
        <ele>176.29</ele>
        <time>2011-05-30T13:48:23Z</time>
      </trkpt>
      <trkpt lat="45.8068" lon="5.00649">
        <ele>175.671</ele>
        <time>2011-05-30T13:48:29Z</time>
      </trkpt>
      <trkpt lat="45.80685" lon="5.00679">
        <ele>175.432</ele>
        <time>2011-05-30T13:48:33Z</time>
      </trkpt>
      <trkpt lat="45.80687" lon="5.00691">
        <ele>176.824</ele>
        <time>2011-05-30T13:48:35Z</time>
      </trkpt>
      <trkpt lat="45.80687" lon="5.00712">
        <ele>177.463</ele>
        <time>2011-05-30T13:48:38Z</time>
      </trkpt>
      <trkpt lat="45.80685" lon="5.00735">
        <ele>177.498</ele>
        <time>2011-05-30T13:48:41Z</time>
      </trkpt>
      <trkpt lat="45.80678" lon="5.00775">
        <ele>178.108</ele>
        <time>2011-05-30T13:48:47Z</time>
      </trkpt>
      <trkpt lat="45.80663" lon="5.00819">
        <ele>177.776</ele>
        <time>2011-05-30T13:48:55Z</time>
      </trkpt>
      <trkpt lat="45.80651" lon="5.00846">
        <ele>176.5</ele>
        <time>2011-05-30T13:49:00Z</time>
      </trkpt>
      <trkpt lat="45.80655" lon="5.00869">
        <ele>176.368</ele>
        <time>2011-05-30T13:49:04Z</time>
      </trkpt>
      <trkpt lat="45.8065" lon="5.01027">
        <ele>175.565</ele>
        <time>2011-05-30T13:49:23Z</time>
      </trkpt>
      <trkpt lat="45.80649" lon="5.01036">
        <ele>175.561</ele>
        <time>2011-05-30T13:49:24Z</time>
      </trkpt>
      <trkpt lat="45.80642" lon="5.01062">
        <ele>175.736</ele>
        <time>2011-05-30T13:49:27Z</time>
      </trkpt>
      <trkpt lat="45.80634" lon="5.01125">
        <ele>174.885</ele>
        <time>2011-05-30T13:49:34Z</time>
      </trkpt>
      <trkpt lat="45.80617" lon="5.01219">
        <ele>175.94</ele>
        <time>2011-05-30T13:49:45Z</time>
      </trkpt>
      <trkpt lat="45.80589" lon="5.0126">
        <ele>174.771</ele>
        <time>2011-05-30T13:49:52Z</time>
      </trkpt>
      <trkpt lat="45.8053" lon="5.01302">
        <ele>175.497</ele>
        <time>2011-05-30T13:50:03Z</time>
      </trkpt>
      <trkpt lat="45.8051" lon="5.01346">
        <ele>174.86</ele>
        <time>2011-05-30T13:50:09Z</time>
      </trkpt>
      <trkpt lat="45.80495" lon="5.01349">
        <ele>175.004</ele>
        <time>2011-05-30T13:50:13Z</time>
      </trkpt>
      <trkpt lat="45.80492" lon="5.01336">
        <ele>173.621</ele>
        <time>2011-05-30T13:50:15Z</time>
      </trkpt>
      <trkpt lat="45.80481" lon="5.01309">
        <ele>173.267</ele>
        <time>2011-05-30T13:50:19Z</time>
      </trkpt>
      <trkpt lat="45.80475" lon="5.01296">
        <ele>174.713</ele>
        <time>2011-05-30T13:50:21Z</time>
      </trkpt>
      <trkpt lat="45.80449" lon="5.01286">
        <ele>175.219</ele>
        <time>2011-05-30T13:50:27Z</time>
      </trkpt>
      <trkpt lat="45.8043" lon="5.01292">
        <ele>172.363</ele>
        <time>2011-05-30T13:50:31Z</time>
      </trkpt>
      <trkpt lat="45.80418" lon="5.01283">
        <ele>173.975</ele>
        <time>2011-05-30T13:50:34Z</time>
      </trkpt>
      <trkpt lat="45.80399" lon="5.0126">
        <ele>176.526</ele>
        <time>2011-05-30T13:50:39Z</time>
      </trkpt>
      <trkpt lat="45.80366" lon="5.01254">
        <ele>174.475</ele>
        <time>2011-05-30T13:50:45Z</time>
      </trkpt>
      <trkpt lat="45.80351" lon="5.01264">
        <ele>174.213</ele>
        <time>2011-05-30T13:50:48Z</time>
      </trkpt>
      <trkpt lat="45.80317" lon="5.0126">
        <ele>174.4</ele>
        <time>2011-05-30T13:50:54Z</time>
      </trkpt>
      <trkpt lat="45.80307" lon="5.01251">
        <ele>172.795</ele>
        <time>2011-05-30T13:50:56Z</time>
      </trkpt>
      <trkpt lat="45.80299" lon="5.01239">
        <ele>172.307</ele>
        <time>2011-05-30T13:50:58Z</time>
      </trkpt>
      <trkpt lat="45.80289" lon="5.0121">
        <ele>173.275</ele>
        <time>2011-05-30T13:51:02Z</time>
      </trkpt>
      <trkpt lat="45.80275" lon="5.01182">
        <ele>173.433</ele>
        <time>2011-05-30T13:51:06Z</time>
      </trkpt>
      <trkpt lat="45.80264" lon="5.01155">
        <ele>174.418</ele>
        <time>2011-05-30T13:51:10Z</time>
      </trkpt>
      <trkpt lat="45.80253" lon="5.01115">
        <ele>174.075</ele>
        <time>2011-05-30T13:51:15Z</time>
      </trkpt>
      <trkpt lat="45.80253" lon="5.01041">
        <ele>174.143</ele>
        <time>2011-05-30T13:51:23Z</time>
      </trkpt>
      <trkpt lat="45.80248" lon="5.01006">
        <ele>173.642</ele>
        <time>2011-05-30T13:51:27Z</time>
      </trkpt>
      <trkpt lat="45.80221" lon="5.00939">
        <ele>172.551</ele>
        <time>2011-05-30T13:51:36Z</time>
      </trkpt>
      <trkpt lat="45.80197" lon="5.00892">
        <ele>171.71</ele>
        <time>2011-05-30T13:51:43Z</time>
      </trkpt>
      <trkpt lat="45.80173" lon="5.00832">
        <ele>172.159</ele>
        <time>2011-05-30T13:51:52Z</time>
      </trkpt>
      <trkpt lat="45.80136" lon="5.00747">
        <ele>173.367</ele>
        <time>2011-05-30T13:52:04Z</time>
      </trkpt>
      <trkpt lat="45.8013" lon="5.00732">
        <ele>171.682</ele>
        <time>2011-05-30T13:52:06Z</time>
      </trkpt>
      <trkpt lat="45.801" lon="5.00664">
        <ele>171.422</ele>
        <time>2011-05-30T13:52:16Z</time>
      </trkpt>
      <trkpt lat="45.80091" lon="5.00654">
        <ele>173.073</ele>
        <time>2011-05-30T13:52:18Z</time>
      </trkpt>
      <trkpt lat="45.80081" lon="5.00647">
        <ele>174.075</ele>
        <time>2011-05-30T13:52:20Z</time>
      </trkpt>
      <trkpt lat="45.80066" lon="5.0064">
        <ele>173.925</ele>
        <time>2011-05-30T13:52:23Z</time>
      </trkpt>
      <trkpt lat="45.80051" lon="5.0062">
        <ele>174.263</ele>
        <time>2011-05-30T13:52:27Z</time>
      </trkpt>
      <trkpt lat="45.80029" lon="5.00559">
        <ele>174.904</ele>
        <time>2011-05-30T13:52:36Z</time>
      </trkpt>
      <trkpt lat="45.80011" lon="5.00554">
        <ele>174.773</ele>
        <time>2011-05-30T13:52:41Z</time>
      </trkpt>
      <trkpt lat="45.79996" lon="5.00581">
        <ele>175.166</ele>
        <time>2011-05-30T13:52:46Z</time>
      </trkpt>
      <trkpt lat="45.79975" lon="5.0062">
        <ele>175.02</ele>
        <time>2011-05-30T13:52:52Z</time>
      </trkpt>
      <trkpt lat="45.79965" lon="5.00648">
        <ele>175.795</ele>
        <time>2011-05-30T13:52:57Z</time>
      </trkpt>
      <trkpt lat="45.79947" lon="5.00669">
        <ele>173.955</ele>
        <time>2011-05-30T13:53:03Z</time>
      </trkpt>
      <trkpt lat="45.79934" lon="5.0067">
        <ele>174.697</ele>
        <time>2011-05-30T13:53:07Z</time>
      </trkpt>
      <trkpt lat="45.79918" lon="5.00669">
        <ele>172.65</ele>
        <time>2011-05-30T13:53:10Z</time>
      </trkpt>
      <trkpt lat="45.79907" lon="5.00667">
        <ele>173.474</ele>
        <time>2011-05-30T13:53:12Z</time>
      </trkpt>
      <trkpt lat="45.79877" lon="5.00637">
        <ele>172.465</ele>
        <time>2011-05-30T13:53:18Z</time>
      </trkpt>
      <trkpt lat="45.79873" lon="5.00621">
        <ele>172.713</ele>
        <time>2011-05-30T13:53:20Z</time>
      </trkpt>
      <trkpt lat="45.79861" lon="5.00591">
        <ele>174.429</ele>
        <time>2011-05-30T13:53:24Z</time>
      </trkpt>
      <trkpt lat="45.79825" lon="5.00548">
        <ele>174.911</ele>
        <time>2011-05-30T13:53:32Z</time>
      </trkpt>
      <trkpt lat="45.79806" lon="5.00533">
        <ele>175.226</ele>
        <time>2011-05-30T13:53:36Z</time>
      </trkpt>
      <trkpt lat="45.79795" lon="5.00525">
        <ele>174.526</ele>
        <time>2011-05-30T13:53:38Z</time>
      </trkpt>
      <trkpt lat="45.79773" lon="5.005">
        <ele>174.695</ele>
        <time>2011-05-30T13:53:43Z</time>
      </trkpt>
      <trkpt lat="45.79753" lon="5.00489">
        <ele>173.91</ele>
        <time>2011-05-30T13:53:47Z</time>
      </trkpt>
      <trkpt lat="45.79726" lon="5.00492">
        <ele>173.871</ele>
        <time>2011-05-30T13:53:52Z</time>
      </trkpt>
      <trkpt lat="45.7971" lon="5.00508">
        <ele>174.659</ele>
        <time>2011-05-30T13:53:56Z</time>
      </trkpt>
      <trkpt lat="45.79703" lon="5.00518">
        <ele>174.516</ele>
        <time>2011-05-30T13:53:58Z</time>
      </trkpt>
      <trkpt lat="45.79684" lon="5.00497">
        <ele>175.061</ele>
        <time>2011-05-30T13:54:05Z</time>
      </trkpt>
      <trkpt lat="45.7968" lon="5.00483">
        <ele>174.7</ele>
        <time>2011-05-30T13:54:07Z</time>
      </trkpt>
      <trkpt lat="45.79667" lon="5.00396">
        <ele>175.176</ele>
        <time>2011-05-30T13:54:18Z</time>
      </trkpt>
      <trkpt lat="45.79646" lon="5.00298">
        <ele>173.297</ele>
        <time>2011-05-30T13:54:29Z</time>
      </trkpt>
      <trkpt lat="45.79639" lon="5.00257">
        <ele>174.543</ele>
        <time>2011-05-30T13:54:34Z</time>
      </trkpt>
      <trkpt lat="45.79645" lon="5.00189">
        <ele>175.591</ele>
        <time>2011-05-30T13:54:43Z</time>
      </trkpt>
      <trkpt lat="45.79648" lon="5.00128">
        <ele>175.485</ele>
        <time>2011-05-30T13:54:51Z</time>
      </trkpt>
      <trkpt lat="45.79645" lon="5.00103">
        <ele>176.111</ele>
        <time>2011-05-30T13:54:55Z</time>
      </trkpt>
      <trkpt lat="45.79647" lon="5.00089">
        <ele>175.936</ele>
        <time>2011-05-30T13:54:57Z</time>
      </trkpt>
      <trkpt lat="45.79647" lon="5.00067">
        <ele>174.929</ele>
        <time>2011-05-30T13:55:00Z</time>
      </trkpt>
      <trkpt lat="45.7965" lon="5.00029">
        <ele>174.603</ele>
        <time>2011-05-30T13:55:05Z</time>
      </trkpt>
      <trkpt lat="45.79654" lon="5.00016">
        <ele>173.512</ele>
        <time>2011-05-30T13:55:07Z</time>
      </trkpt>
      <trkpt lat="45.79654" lon="5.00009">
        <ele>173.635</ele>
        <time>2011-05-30T13:55:08Z</time>
      </trkpt>
      <trkpt lat="45.79656" lon="4.99989">
        <ele>173.376</ele>
        <time>2011-05-30T13:55:11Z</time>
      </trkpt>
      <trkpt lat="45.79659" lon="4.99967">
        <ele>172.713</ele>
        <time>2011-05-30T13:55:14Z</time>
      </trkpt>
      <trkpt lat="45.79668" lon="4.99937">
        <ele>174.154</ele>
        <time>2011-05-30T13:55:18Z</time>
      </trkpt>
      <trkpt lat="45.79684" lon="4.99897">
        <ele>171.798</ele>
        <time>2011-05-30T13:55:23Z</time>
      </trkpt>
      <trkpt lat="45.7969" lon="4.99881">
        <ele>171.445</ele>
        <time>2011-05-30T13:55:25Z</time>
      </trkpt>
      <trkpt lat="45.797" lon="4.99853">
        <ele>174.447</ele>
        <time>2011-05-30T13:55:29Z</time>
      </trkpt>
      <trkpt lat="45.79703" lon="4.99846">
        <ele>174.447</ele>
        <time>2011-05-30T13:55:30Z</time>
      </trkpt>
      <trkpt lat="45.79706" lon="4.9983">
        <ele>175.868</ele>
        <time>2011-05-30T13:55:32Z</time>
      </trkpt>
      <trkpt lat="45.79693" lon="4.99818">
        <ele>175.386</ele>
        <time>2011-05-30T13:55:37Z</time>
      </trkpt>
      <trkpt lat="45.79687" lon="4.99812">
        <ele>175.466</ele>
        <time>2011-05-30T13:55:39Z</time>
      </trkpt>
      <trkpt lat="45.79641" lon="4.99773">
        <ele>174.293</ele>
        <time>2011-05-30T13:55:49Z</time>
      </trkpt>
      <trkpt lat="45.79628" lon="4.99746">
        <ele>175.298</ele>
        <time>2011-05-30T13:55:53Z</time>
      </trkpt>
      <trkpt lat="45.79615" lon="4.99727">
        <ele>176.099</ele>
        <time>2011-05-30T13:55:56Z</time>
      </trkpt>
      <trkpt lat="45.79611" lon="4.99703">
        <ele>174.542</ele>
        <time>2011-05-30T13:56:00Z</time>
      </trkpt>
      <trkpt lat="45.7961" lon="4.99695">
        <ele>174.235</ele>
        <time>2011-05-30T13:56:01Z</time>
      </trkpt>
      <trkpt lat="45.79607" lon="4.99671">
        <ele>175.651</ele>
        <time>2011-05-30T13:56:05Z</time>
      </trkpt>
      <trkpt lat="45.79603" lon="4.99665">
        <ele>176.756</ele>
        <time>2011-05-30T13:56:07Z</time>
      </trkpt>
      <trkpt lat="45.79595" lon="4.99658">
        <ele>176.416</ele>
        <time>2011-05-30T13:56:09Z</time>
      </trkpt>
      <trkpt lat="45.79582" lon="4.99642">
        <ele>176.157</ele>
        <time>2011-05-30T13:56:12Z</time>
      </trkpt>
      <trkpt lat="45.7955" lon="4.99608">
        <ele>175.555</ele>
        <time>2011-05-30T13:56:19Z</time>
      </trkpt>
      <trkpt lat="45.79509" lon="4.99565">
        <ele>176</ele>
        <time>2011-05-30T13:56:28Z</time>
      </trkpt>
      <trkpt lat="45.79491" lon="4.99551">
        <ele>177.353</ele>
        <time>2011-05-30T13:56:32Z</time>
      </trkpt>
      <trkpt lat="45.79487" lon="4.99547">
        <ele>176.55</ele>
        <time>2011-05-30T13:56:33Z</time>
      </trkpt>
      <trkpt lat="45.79476" lon="4.99529">
        <ele>178.365</ele>
        <time>2011-05-30T13:56:37Z</time>
      </trkpt>
      <trkpt lat="45.79476" lon="4.9951">
        <ele>179.552</ele>
        <time>2011-05-30T13:56:41Z</time>
      </trkpt>
      <trkpt lat="45.79504" lon="4.99446">
        <ele>179.576</ele>
        <time>2011-05-30T13:56:57Z</time>
      </trkpt>
      <trkpt lat="45.79511" lon="4.99428">
        <ele>180.354</ele>
        <time>2011-05-30T13:57:10Z</time>
      </trkpt>
      <trkpt lat="45.79511" lon="4.99428">
        <ele>180.205</ele>
        <time>2011-05-30T13:57:32Z</time>
      </trkpt>
      <trkpt lat="45.79518" lon="4.99416">
        <ele>179.8</ele>
        <time>2011-05-30T13:57:38Z</time>
      </trkpt>
      <trkpt lat="45.79529" lon="4.99382">
        <ele>179.359</ele>
        <time>2011-05-30T13:57:45Z</time>
      </trkpt>
      <trkpt lat="45.79533" lon="4.99355">
        <ele>176.726</ele>
        <time>2011-05-30T13:57:49Z</time>
      </trkpt>
      <trkpt lat="45.79542" lon="4.99329">
        <ele>178.098</ele>
        <time>2011-05-30T13:57:53Z</time>
      </trkpt>
      <trkpt lat="45.79559" lon="4.99253">
        <ele>179.067</ele>
        <time>2011-05-30T13:58:03Z</time>
      </trkpt>
      <trkpt lat="45.79562" lon="4.99237">
        <ele>177.195</ele>
        <time>2011-05-30T13:58:05Z</time>
      </trkpt>
      <trkpt lat="45.79571" lon="4.99183">
        <ele>178.341</ele>
        <time>2011-05-30T13:58:12Z</time>
      </trkpt>
      <trkpt lat="45.79572" lon="4.99176">
        <ele>179.419</ele>
        <time>2011-05-30T13:58:13Z</time>
      </trkpt>
      <trkpt lat="45.79571" lon="4.99109">
        <ele>182.977</ele>
        <time>2011-05-30T13:58:25Z</time>
      </trkpt>
      <trkpt lat="45.79568" lon="4.99075">
        <ele>184.306</ele>
        <time>2011-05-30T13:58:33Z</time>
      </trkpt>
      <trkpt lat="45.79569" lon="4.99056">
        <ele>182.654</ele>
        <time>2011-05-30T13:58:36Z</time>
      </trkpt>
      <trkpt lat="45.79568" lon="4.99038">
        <ele>181.417</ele>
        <time>2011-05-30T13:58:38Z</time>
      </trkpt>
      <trkpt lat="45.79565" lon="4.9901">
        <ele>181.324</ele>
        <time>2011-05-30T13:58:41Z</time>
      </trkpt>
      <trkpt lat="45.79553" lon="4.98964">
        <ele>177.96</ele>
        <time>2011-05-30T13:58:46Z</time>
      </trkpt>
      <trkpt lat="45.7955" lon="4.98956">
        <ele>177.956</ele>
        <time>2011-05-30T13:58:47Z</time>
      </trkpt>
      <trkpt lat="45.79521" lon="4.98863">
        <ele>178.426</ele>
        <time>2011-05-30T13:59:00Z</time>
      </trkpt>
      <trkpt lat="45.79515" lon="4.98833">
        <ele>176.71</ele>
        <time>2011-05-30T13:59:04Z</time>
      </trkpt>
      <trkpt lat="45.7951" lon="4.98817">
        <ele>175.088</ele>
        <time>2011-05-30T13:59:06Z</time>
      </trkpt>
      <trkpt lat="45.79497" lon="4.98783">
        <ele>174.104</ele>
        <time>2011-05-30T13:59:10Z</time>
      </trkpt>
      <trkpt lat="45.79488" lon="4.98761">
        <ele>171.654</ele>
        <time>2011-05-30T13:59:13Z</time>
      </trkpt>
      <trkpt lat="45.79478" lon="4.98739">
        <ele>173.101</ele>
        <time>2011-05-30T13:59:16Z</time>
      </trkpt>
      <trkpt lat="45.79476" lon="4.98717">
        <ele>171.691</ele>
        <time>2011-05-30T13:59:19Z</time>
      </trkpt>
      <trkpt lat="45.79479" lon="4.98712">
        <ele>174.198</ele>
        <time>2011-05-30T13:59:20Z</time>
      </trkpt>
      <trkpt lat="45.79477" lon="4.98663">
        <ele>173.664</ele>
        <time>2011-05-30T13:59:27Z</time>
      </trkpt>
      <trkpt lat="45.79454" lon="4.98596">
        <ele>173.306</ele>
        <time>2011-05-30T13:59:35Z</time>
      </trkpt>
      <trkpt lat="45.79428" lon="4.98507">
        <ele>173.004</ele>
        <time>2011-05-30T13:59:45Z</time>
      </trkpt>
      <trkpt lat="45.79388" lon="4.98369">
        <ele>172.519</ele>
        <time>2011-05-30T14:00:01Z</time>
      </trkpt>
      <trkpt lat="45.79371" lon="4.98293">
        <ele>174.1</ele>
        <time>2011-05-30T14:00:10Z</time>
      </trkpt>
      <trkpt lat="45.79364" lon="4.98275">
        <ele>175.926</ele>
        <time>2011-05-30T14:00:13Z</time>
      </trkpt>
      <trkpt lat="45.79363" lon="4.98207">
        <ele>173.783</ele>
        <time>2011-05-30T14:00:21Z</time>
      </trkpt>
      <trkpt lat="45.79372" lon="4.98106">
        <ele>172.972</ele>
        <time>2011-05-30T14:00:31Z</time>
      </trkpt>
      <trkpt lat="45.79368" lon="4.98078">
        <ele>171.679</ele>
        <time>2011-05-30T14:00:34Z</time>
      </trkpt>
      <trkpt lat="45.79364" lon="4.9806">
        <ele>172.658</ele>
        <time>2011-05-30T14:00:36Z</time>
      </trkpt>
      <trkpt lat="45.79366" lon="4.98004">
        <ele>173.431</ele>
        <time>2011-05-30T14:00:42Z</time>
      </trkpt>
      <trkpt lat="45.79372" lon="4.97971">
        <ele>173.085</ele>
        <time>2011-05-30T14:00:46Z</time>
      </trkpt>
      <trkpt lat="45.79397" lon="4.97929">
        <ele>171.57</ele>
        <time>2011-05-30T14:00:52Z</time>
      </trkpt>
      <trkpt lat="45.79421" lon="4.97911">
        <ele>173.386</ele>
        <time>2011-05-30T14:00:56Z</time>
      </trkpt>
      <trkpt lat="45.79452" lon="4.97886">
        <ele>173.551</ele>
        <time>2011-05-30T14:01:01Z</time>
      </trkpt>
      <trkpt lat="45.79534" lon="4.97853">
        <ele>172.044</ele>
        <time>2011-05-30T14:01:13Z</time>
      </trkpt>
      <trkpt lat="45.79554" lon="4.97821">
        <ele>172.141</ele>
        <time>2011-05-30T14:01:17Z</time>
      </trkpt>
      <trkpt lat="45.79582" lon="4.97784">
        <ele>174.182</ele>
        <time>2011-05-30T14:01:23Z</time>
      </trkpt>
      <trkpt lat="45.79598" lon="4.97755">
        <ele>174.523</ele>
        <time>2011-05-30T14:01:27Z</time>
      </trkpt>
      <trkpt lat="45.79628" lon="4.97711">
        <ele>173.549</ele>
        <time>2011-05-30T14:01:33Z</time>
      </trkpt>
      <trkpt lat="45.79653" lon="4.9765">
        <ele>174.435</ele>
        <time>2011-05-30T14:01:40Z</time>
      </trkpt>
      <trkpt lat="45.79687" lon="4.97615">
        <ele>176.114</ele>
        <time>2011-05-30T14:01:47Z</time>
      </trkpt>
      <trkpt lat="45.79706" lon="4.97609">
        <ele>177.539</ele>
        <time>2011-05-30T14:01:51Z</time>
      </trkpt>
      <trkpt lat="45.79721" lon="4.97595">
        <ele>179.173</ele>
        <time>2011-05-30T14:01:55Z</time>
      </trkpt>
      <trkpt lat="45.79724" lon="4.97578">
        <ele>179.418</ele>
        <time>2011-05-30T14:01:58Z</time>
      </trkpt>
      <trkpt lat="45.79724" lon="4.97559">
        <ele>180.19</ele>
        <time>2011-05-30T14:02:01Z</time>
      </trkpt>
      <trkpt lat="45.7972" lon="4.97432">
        <ele>179.316</ele>
        <time>2011-05-30T14:02:17Z</time>
      </trkpt>
      <trkpt lat="45.79714" lon="4.97288">
        <ele>178.327</ele>
        <time>2011-05-30T14:02:32Z</time>
      </trkpt>
      <trkpt lat="45.79715" lon="4.97224">
        <ele>177.233</ele>
        <time>2011-05-30T14:02:38Z</time>
      </trkpt>
      <trkpt lat="45.79705" lon="4.97176">
        <ele>177.698</ele>
        <time>2011-05-30T14:02:43Z</time>
      </trkpt>
      <trkpt lat="45.79694" lon="4.97151">
        <ele>178.617</ele>
        <time>2011-05-30T14:02:46Z</time>
      </trkpt>
      <trkpt lat="45.79686" lon="4.97131">
        <ele>176.022</ele>
        <time>2011-05-30T14:02:48Z</time>
      </trkpt>
      <trkpt lat="45.79682" lon="4.9711">
        <ele>174.664</ele>
        <time>2011-05-30T14:02:50Z</time>
      </trkpt>
      <trkpt lat="45.79678" lon="4.97094">
        <ele>176.818</ele>
        <time>2011-05-30T14:02:52Z</time>
      </trkpt>
      <trkpt lat="45.7967" lon="4.97085">
        <ele>177.299</ele>
        <time>2011-05-30T14:02:55Z</time>
      </trkpt>
      <trkpt lat="45.79667" lon="4.97072">
        <ele>173.757</ele>
        <time>2011-05-30T14:02:57Z</time>
      </trkpt>
      <trkpt lat="45.7967" lon="4.97061">
        <ele>172.752</ele>
        <time>2011-05-30T14:02:59Z</time>
      </trkpt>
      <trkpt lat="45.79677" lon="4.97034">
        <ele>174.045</ele>
        <time>2011-05-30T14:03:04Z</time>
      </trkpt>
      <trkpt lat="45.79671" lon="4.97016">
        <ele>172.59</ele>
        <time>2011-05-30T14:03:08Z</time>
      </trkpt>
      <trkpt lat="45.79663" lon="4.9701">
        <ele>172.397</ele>
        <time>2011-05-30T14:03:10Z</time>
      </trkpt>
      <trkpt lat="45.79658" lon="4.96993">
        <ele>174.111</ele>
        <time>2011-05-30T14:03:14Z</time>
      </trkpt>
      <trkpt lat="45.79659" lon="4.96986">
        <ele>175.02</ele>
        <time>2011-05-30T14:03:16Z</time>
      </trkpt>
      <trkpt lat="45.79659" lon="4.96977">
        <ele>174.6</ele>
        <time>2011-05-30T14:03:18Z</time>
      </trkpt>
      <trkpt lat="45.79654" lon="4.96941">
        <ele>172.912</ele>
        <time>2011-05-30T14:03:24Z</time>
      </trkpt>
      <trkpt lat="45.7965" lon="4.9693">
        <ele>172.591</ele>
        <time>2011-05-30T14:03:26Z</time>
      </trkpt>
      <trkpt lat="45.79653" lon="4.969">
        <ele>171.703</ele>
        <time>2011-05-30T14:03:30Z</time>
      </trkpt>
      <trkpt lat="45.79658" lon="4.96863">
        <ele>171.116</ele>
        <time>2011-05-30T14:03:35Z</time>
      </trkpt>
      <trkpt lat="45.79661" lon="4.96849">
        <ele>171.257</ele>
        <time>2011-05-30T14:03:37Z</time>
      </trkpt>
      <trkpt lat="45.7966" lon="4.96803">
        <ele>170.431</ele>
        <time>2011-05-30T14:03:43Z</time>
      </trkpt>
      <trkpt lat="45.79665" lon="4.96768">
        <ele>170.584</ele>
        <time>2011-05-30T14:03:47Z</time>
      </trkpt>
      <trkpt lat="45.79666" lon="4.96735">
        <ele>170.639</ele>
        <time>2011-05-30T14:03:51Z</time>
      </trkpt>
      <trkpt lat="45.79669" lon="4.96713">
        <ele>171.518</ele>
        <time>2011-05-30T14:03:54Z</time>
      </trkpt>
      <trkpt lat="45.7968" lon="4.96675">
        <ele>170.974</ele>
        <time>2011-05-30T14:03:59Z</time>
      </trkpt>
      <trkpt lat="45.79686" lon="4.96599">
        <ele>172.352</ele>
        <time>2011-05-30T14:04:09Z</time>
      </trkpt>
      <trkpt lat="45.79689" lon="4.96563">
        <ele>172.085</ele>
        <time>2011-05-30T14:04:14Z</time>
      </trkpt>
      <trkpt lat="45.79698" lon="4.96523">
        <ele>171.274</ele>
        <time>2011-05-30T14:04:19Z</time>
      </trkpt>
      <trkpt lat="45.797" lon="4.96471">
        <ele>171.513</ele>
        <time>2011-05-30T14:04:27Z</time>
      </trkpt>
      <trkpt lat="45.79703" lon="4.96461">
        <ele>170.642</ele>
        <time>2011-05-30T14:04:28Z</time>
      </trkpt>
      <trkpt lat="45.79717" lon="4.96402">
        <ele>169.98</ele>
        <time>2011-05-30T14:04:35Z</time>
      </trkpt>
      <trkpt lat="45.7972" lon="4.96387">
        <ele>171.007</ele>
        <time>2011-05-30T14:04:37Z</time>
      </trkpt>
      <trkpt lat="45.79722" lon="4.96369">
        <ele>171.281</ele>
        <time>2011-05-30T14:04:39Z</time>
      </trkpt>
      <trkpt lat="45.79727" lon="4.96344">
        <ele>170.346</ele>
        <time>2011-05-30T14:04:42Z</time>
      </trkpt>
      <trkpt lat="45.79732" lon="4.96297">
        <ele>169.842</ele>
        <time>2011-05-30T14:04:48Z</time>
      </trkpt>
      <trkpt lat="45.79733" lon="4.96272">
        <ele>170.493</ele>
        <time>2011-05-30T14:04:51Z</time>
      </trkpt>
      <trkpt lat="45.79733" lon="4.96247">
        <ele>170.514</ele>
        <time>2011-05-30T14:04:54Z</time>
      </trkpt>
      <trkpt lat="45.7973" lon="4.96224">
        <ele>171.91</ele>
        <time>2011-05-30T14:04:57Z</time>
      </trkpt>
      <trkpt lat="45.7973" lon="4.96217">
        <ele>171.908</ele>
        <time>2011-05-30T14:04:58Z</time>
      </trkpt>
      <trkpt lat="45.79731" lon="4.96204">
        <ele>171.648</ele>
        <time>2011-05-30T14:05:00Z</time>
      </trkpt>
      <trkpt lat="45.79739" lon="4.96135">
        <ele>171.223</ele>
        <time>2011-05-30T14:05:08Z</time>
      </trkpt>
      <trkpt lat="45.79755" lon="4.96089">
        <ele>169.908</ele>
        <time>2011-05-30T14:05:14Z</time>
      </trkpt>
      <trkpt lat="45.79762" lon="4.96065">
        <ele>170.084</ele>
        <time>2011-05-30T14:05:17Z</time>
      </trkpt>
      <trkpt lat="45.79759" lon="4.96034">
        <ele>169.916</ele>
        <time>2011-05-30T14:05:21Z</time>
      </trkpt>
      <trkpt lat="45.79734" lon="4.95988">
        <ele>168.124</ele>
        <time>2011-05-30T14:05:28Z</time>
      </trkpt>
      <trkpt lat="45.79722" lon="4.95964">
        <ele>169.474</ele>
        <time>2011-05-30T14:05:32Z</time>
      </trkpt>
      <trkpt lat="45.79719" lon="4.95958">
        <ele>169.773</ele>
        <time>2011-05-30T14:05:33Z</time>
      </trkpt>
      <trkpt lat="45.79709" lon="4.95932">
        <ele>168.633</ele>
        <time>2011-05-30T14:05:37Z</time>
      </trkpt>
      <trkpt lat="45.797" lon="4.95914">
        <ele>170.645</ele>
        <time>2011-05-30T14:05:40Z</time>
      </trkpt>
      <trkpt lat="45.7965" lon="4.95831">
        <ele>168.429</ele>
        <time>2011-05-30T14:05:55Z</time>
      </trkpt>
      <trkpt lat="45.79619" lon="4.95771">
        <ele>169.466</ele>
        <time>2011-05-30T14:06:06Z</time>
      </trkpt>
      <trkpt lat="45.79601" lon="4.95736">
        <ele>169.755</ele>
        <time>2011-05-30T14:06:13Z</time>
      </trkpt>
      <trkpt lat="45.79581" lon="4.95668">
        <ele>171.497</ele>
        <time>2011-05-30T14:06:26Z</time>
      </trkpt>
      <trkpt lat="45.79576" lon="4.95649">
        <ele>170.725</ele>
        <time>2011-05-30T14:06:29Z</time>
      </trkpt>
      <trkpt lat="45.79574" lon="4.95621">
        <ele>171.176</ele>
        <time>2011-05-30T14:06:33Z</time>
      </trkpt>
      <trkpt lat="45.79572" lon="4.95591">
        <ele>170.749</ele>
        <time>2011-05-30T14:06:37Z</time>
      </trkpt>
      <trkpt lat="45.79569" lon="4.95577">
        <ele>170.282</ele>
        <time>2011-05-30T14:06:39Z</time>
      </trkpt>
      <trkpt lat="45.7958" lon="4.95558">
        <ele>170.732</ele>
        <time>2011-05-30T14:06:43Z</time>
      </trkpt>
      <trkpt lat="45.79598" lon="4.95542">
        <ele>170.509</ele>
        <time>2011-05-30T14:06:47Z</time>
      </trkpt>
      <trkpt lat="45.79627" lon="4.9555">
        <ele>171.477</ele>
        <time>2011-05-30T14:06:52Z</time>
      </trkpt>
      <trkpt lat="45.79666" lon="4.95523">
        <ele>170.504</ele>
        <time>2011-05-30T14:06:59Z</time>
      </trkpt>
      <trkpt lat="45.79671" lon="4.95517">
        <ele>170.501</ele>
        <time>2011-05-30T14:07:00Z</time>
      </trkpt>
      <trkpt lat="45.7968" lon="4.95466">
        <ele>170.366</ele>
        <time>2011-05-30T14:07:07Z</time>
      </trkpt>
      <trkpt lat="45.7968" lon="4.95448">
        <ele>171.957</ele>
        <time>2011-05-30T14:07:11Z</time>
      </trkpt>
      <trkpt lat="45.7968" lon="4.95425">
        <ele>170.989</ele>
        <time>2011-05-30T14:07:15Z</time>
      </trkpt>
      <trkpt lat="45.79681" lon="4.95406">
        <ele>171.243</ele>
        <time>2011-05-30T14:07:18Z</time>
      </trkpt>
      <trkpt lat="45.79681" lon="4.95385">
        <ele>170.672</ele>
        <time>2011-05-30T14:07:21Z</time>
      </trkpt>
      <trkpt lat="45.79678" lon="4.95374">
        <ele>170.964</ele>
        <time>2011-05-30T14:07:23Z</time>
      </trkpt>
      <trkpt lat="45.79681" lon="4.95349">
        <ele>171.791</ele>
        <time>2011-05-30T14:07:27Z</time>
      </trkpt>
      <trkpt lat="45.7968" lon="4.95322">
        <ele>171.736</ele>
        <time>2011-05-30T14:07:31Z</time>
      </trkpt>
      <trkpt lat="45.79678" lon="4.95296">
        <ele>172.76</ele>
        <time>2011-05-30T14:07:36Z</time>
      </trkpt>
      <trkpt lat="45.79684" lon="4.95275">
        <ele>174.299</ele>
        <time>2011-05-30T14:07:42Z</time>
      </trkpt>
      <trkpt lat="45.79682" lon="4.95257">
        <ele>176.265</ele>
        <time>2011-05-30T14:07:46Z</time>
      </trkpt>
      <trkpt lat="45.7967" lon="4.95217">
        <ele>170.486</ele>
        <time>2011-05-30T14:07:53Z</time>
      </trkpt>
      <trkpt lat="45.79667" lon="4.95208">
        <ele>170.48</ele>
        <time>2011-05-30T14:07:54Z</time>
      </trkpt>
      <trkpt lat="45.79665" lon="4.95165">
        <ele>167.919</ele>
        <time>2011-05-30T14:07:58Z</time>
      </trkpt>
      <trkpt lat="45.79666" lon="4.95156">
        <ele>168.148</ele>
        <time>2011-05-30T14:07:59Z</time>
      </trkpt>
      <trkpt lat="45.79669" lon="4.95137">
        <ele>169.162</ele>
        <time>2011-05-30T14:08:01Z</time>
      </trkpt>
      <trkpt lat="45.79683" lon="4.95086">
        <ele>169.51</ele>
        <time>2011-05-30T14:08:07Z</time>
      </trkpt>
      <trkpt lat="45.79685" lon="4.94981">
        <ele>168.161</ele>
        <time>2011-05-30T14:08:19Z</time>
      </trkpt>
      <trkpt lat="45.79682" lon="4.94901">
        <ele>170.304</ele>
        <time>2011-05-30T14:08:28Z</time>
      </trkpt>
      <trkpt lat="45.7968" lon="4.94857">
        <ele>169.902</ele>
        <time>2011-05-30T14:08:33Z</time>
      </trkpt>
      <trkpt lat="45.79682" lon="4.94835">
        <ele>171.613</ele>
        <time>2011-05-30T14:08:36Z</time>
      </trkpt>
      <trkpt lat="45.79677" lon="4.94739">
        <ele>169.507</ele>
        <time>2011-05-30T14:08:46Z</time>
      </trkpt>
      <trkpt lat="45.79674" lon="4.9465">
        <ele>170.089</ele>
        <time>2011-05-30T14:08:55Z</time>
      </trkpt>
      <trkpt lat="45.79673" lon="4.94601">
        <ele>170.655</ele>
        <time>2011-05-30T14:09:01Z</time>
      </trkpt>
      <trkpt lat="45.79673" lon="4.94574">
        <ele>171.761</ele>
        <time>2011-05-30T14:09:04Z</time>
      </trkpt>
      <trkpt lat="45.79717" lon="4.94442">
        <ele>170.287</ele>
        <time>2011-05-30T14:09:19Z</time>
      </trkpt>
      <trkpt lat="45.79755" lon="4.94367">
        <ele>169.473</ele>
        <time>2011-05-30T14:09:29Z</time>
      </trkpt>
      <trkpt lat="45.79776" lon="4.9435">
        <ele>170.516</ele>
        <time>2011-05-30T14:09:33Z</time>
      </trkpt>
      <trkpt lat="45.798" lon="4.94347">
        <ele>170.771</ele>
        <time>2011-05-30T14:09:37Z</time>
      </trkpt>
      <trkpt lat="45.79807" lon="4.94301">
        <ele>169.556</ele>
        <time>2011-05-30T14:09:44Z</time>
      </trkpt>
      <trkpt lat="45.79807" lon="4.94293">
        <ele>169.553</ele>
        <time>2011-05-30T14:09:45Z</time>
      </trkpt>
      <trkpt lat="45.79809" lon="4.94264">
        <ele>172.146</ele>
        <time>2011-05-30T14:09:49Z</time>
      </trkpt>
      <trkpt lat="45.79811" lon="4.94236">
        <ele>173.37</ele>
        <time>2011-05-30T14:09:53Z</time>
      </trkpt>
      <trkpt lat="45.79813" lon="4.94213">
        <ele>173.053</ele>
        <time>2011-05-30T14:09:56Z</time>
      </trkpt>
      <trkpt lat="45.79842" lon="4.94188">
        <ele>173.937</ele>
        <time>2011-05-30T14:10:02Z</time>
      </trkpt>
      <trkpt lat="45.79854" lon="4.94157">
        <ele>173.808</ele>
        <time>2011-05-30T14:10:06Z</time>
      </trkpt>
      <trkpt lat="45.7986" lon="4.94113">
        <ele>172.932</ele>
        <time>2011-05-30T14:10:11Z</time>
      </trkpt>
      <trkpt lat="45.79847" lon="4.9406">
        <ele>174.337</ele>
        <time>2011-05-30T14:10:18Z</time>
      </trkpt>
      <trkpt lat="45.79834" lon="4.94047">
        <ele>174.121</ele>
        <time>2011-05-30T14:10:21Z</time>
      </trkpt>
      <trkpt lat="45.7981" lon="4.94035">
        <ele>173.22</ele>
        <time>2011-05-30T14:10:26Z</time>
      </trkpt>
      <trkpt lat="45.79798" lon="4.94012">
        <ele>173.691</ele>
        <time>2011-05-30T14:10:31Z</time>
      </trkpt>
      <trkpt lat="45.79798" lon="4.94">
        <ele>175.513</ele>
        <time>2011-05-30T14:10:33Z</time>
      </trkpt>
      <trkpt lat="45.79798" lon="4.93993">
        <ele>175.377</ele>
        <time>2011-05-30T14:10:34Z</time>
      </trkpt>
      <trkpt lat="45.79797" lon="4.93979">
        <ele>174.401</ele>
        <time>2011-05-30T14:10:36Z</time>
      </trkpt>
      <trkpt lat="45.79796" lon="4.93956">
        <ele>172.973</ele>
        <time>2011-05-30T14:10:39Z</time>
      </trkpt>
      <trkpt lat="45.79795" lon="4.9392">
        <ele>173.032</ele>
        <time>2011-05-30T14:10:43Z</time>
      </trkpt>
      <trkpt lat="45.79814" lon="4.93843">
        <ele>174.795</ele>
        <time>2011-05-30T14:10:52Z</time>
      </trkpt>
      <trkpt lat="45.7983" lon="4.93819">
        <ele>175.04</ele>
        <time>2011-05-30T14:10:56Z</time>
      </trkpt>
      <trkpt lat="45.79856" lon="4.93797">
        <ele>174.871</ele>
        <time>2011-05-30T14:11:01Z</time>
      </trkpt>
      <trkpt lat="45.79947" lon="4.93753">
        <ele>174.325</ele>
        <time>2011-05-30T14:11:16Z</time>
      </trkpt>
      <trkpt lat="45.8001" lon="4.93704">
        <ele>173.284</ele>
        <time>2011-05-30T14:11:26Z</time>
      </trkpt>
      <trkpt lat="45.80023" lon="4.93696">
        <ele>173.363</ele>
        <time>2011-05-30T14:11:28Z</time>
      </trkpt>
      <trkpt lat="45.80049" lon="4.93691">
        <ele>175.16</ele>
        <time>2011-05-30T14:11:32Z</time>
      </trkpt>
      <trkpt lat="45.80061" lon="4.93688">
        <ele>175.385</ele>
        <time>2011-05-30T14:11:34Z</time>
      </trkpt>
      <trkpt lat="45.80128" lon="4.93642">
        <ele>174.215</ele>
        <time>2011-05-30T14:11:46Z</time>
      </trkpt>
      <trkpt lat="45.80199" lon="4.93569">
        <ele>175.459</ele>
        <time>2011-05-30T14:12:00Z</time>
      </trkpt>
      <trkpt lat="45.80213" lon="4.93545">
        <ele>175.259</ele>
        <time>2011-05-30T14:12:04Z</time>
      </trkpt>
      <trkpt lat="45.80225" lon="4.93527">
        <ele>175.771</ele>
        <time>2011-05-30T14:12:07Z</time>
      </trkpt>
      <trkpt lat="45.80242" lon="4.93517">
        <ele>175.402</ele>
        <time>2011-05-30T14:12:11Z</time>
      </trkpt>
      <trkpt lat="45.80256" lon="4.93507">
        <ele>175.084</ele>
        <time>2011-05-30T14:12:15Z</time>
      </trkpt>
      <trkpt lat="45.80275" lon="4.93496">
        <ele>173.769</ele>
        <time>2011-05-30T14:12:19Z</time>
      </trkpt>
      <trkpt lat="45.80287" lon="4.93466">
        <ele>172.895</ele>
        <time>2011-05-30T14:12:24Z</time>
      </trkpt>
      <trkpt lat="45.80289" lon="4.93459">
        <ele>174.937</ele>
        <time>2011-05-30T14:12:25Z</time>
      </trkpt>
      <trkpt lat="45.80302" lon="4.93434">
        <ele>175.01</ele>
        <time>2011-05-30T14:12:29Z</time>
      </trkpt>
      <trkpt lat="45.80313" lon="4.93428">
        <ele>173.85</ele>
        <time>2011-05-30T14:12:31Z</time>
      </trkpt>
      <trkpt lat="45.80328" lon="4.93414">
        <ele>173.768</ele>
        <time>2011-05-30T14:12:35Z</time>
      </trkpt>
    </trkseg>
  </trk>
</gpx>